<?xml version='1.0' encoding='UTF-8' standalone='yes' ?>
<gpx xmlns="http://www.topografix.com/GPX/1/1" xmlns:geotracker="http://ilyabogdanovich.com/gpx/extensions/geotracker" xmlns:xsi="http://www.w3.org/2001/XMLSchema-instance" xsi:schemaLocation="http://www.topografix.com/GPX/1/1 http://www.topografix.com/GPX/1/1/gpx.xsd" version="1.1" creator="Enregistré par Geo Tracker pour Android de Ilya Bogdanovich">
  <metadata>
    <name>Souvigny 9kms </name>
    <author>
      <name>Enregistré par Geo Tracker pour Android de Ilya Bogdanovich</name>
      <link href="https://play.google.com/store/apps/details?id=com.ilyabogdanovich.geotracker" />
    </author>
    <link href="https://play.google.com/store/apps/details?id=com.ilyabogdanovich.geotracker" />
    <time>2025-10-16T06:58:43Z</time>
  </metadata>
  <wpt lat="47.66223562" lon="2.17009431">
    <ele>185.98</ele>
    <time>2025-10-16T08:03:06Z</time>
    <name>Arrêt de ~4 min</name>
    <desc>Altitude: 186 m
Durée depuis le départ: 01:04:22
Distance depuis le départ: 4,29 km</desc>
    <extensions>
      <geotracker:meta visited="1" />
    </extensions>
  </wpt>
  <trk>
    <name>Souvigny 9kms </name>
    <src>Enregistré par Geo Tracker pour Android de Ilya Bogdanovich</src>
    <link href="https://play.google.com/store/apps/details?id=com.ilyabogdanovich.geotracker" />
    <extensions>
      <geotracker:meta>
        <geotracker:length>8975.81</geotracker:length>
        <geotracker:duration>8440844</geotracker:duration>
        <geotracker:creationtime>2025-10-16T06:58:43Z</geotracker:creationtime>
        <geotracker:activity>0</geotracker:activity>
      </geotracker:meta>
    </extensions>
    <trkseg>
      <trkpt lat="47.64367369" lon="2.16225335">
        <ele>190.75</ele>
        <time>2025-10-16T06:59:30Z</time>
      </trkpt>
      <trkpt lat="47.64371277" lon="2.1624688">
        <ele>187.59</ele>
        <time>2025-10-16T07:00:56Z</time>
      </trkpt>
      <trkpt lat="47.64370337" lon="2.16260691">
        <ele>187.63</ele>
        <time>2025-10-16T07:01:08Z</time>
      </trkpt>
      <trkpt lat="47.6436636" lon="2.1627376">
        <ele>186.77</ele>
        <time>2025-10-16T07:01:19Z</time>
      </trkpt>
      <trkpt lat="47.64366392" lon="2.16287849">
        <ele>186.27</ele>
        <time>2025-10-16T07:01:30Z</time>
      </trkpt>
      <trkpt lat="47.64367447" lon="2.16301093">
        <ele>186.03</ele>
        <time>2025-10-16T07:01:39Z</time>
      </trkpt>
      <trkpt lat="47.64361786" lon="2.16312045">
        <ele>183.04</ele>
        <time>2025-10-16T07:01:49Z</time>
      </trkpt>
      <trkpt lat="47.64355286" lon="2.16321553">
        <ele>183.84</ele>
        <time>2025-10-16T07:02:00Z</time>
      </trkpt>
      <trkpt lat="47.64358403" lon="2.16334747">
        <ele>184.73</ele>
        <time>2025-10-16T07:02:08Z</time>
      </trkpt>
      <trkpt lat="47.64362485" lon="2.16347485">
        <ele>185.09</ele>
        <time>2025-10-16T07:02:19Z</time>
      </trkpt>
      <trkpt lat="47.64369372" lon="2.16356796">
        <ele>188.07</ele>
        <time>2025-10-16T07:02:30Z</time>
      </trkpt>
      <trkpt lat="47.64375141" lon="2.16367804">
        <ele>189.77</ele>
        <time>2025-10-16T07:02:40Z</time>
      </trkpt>
      <trkpt lat="47.64380529" lon="2.16378824">
        <ele>187.81</ele>
        <time>2025-10-16T07:02:50Z</time>
      </trkpt>
      <trkpt lat="47.64386586" lon="2.16390534">
        <ele>186.73</ele>
        <time>2025-10-16T07:03:01Z</time>
      </trkpt>
      <trkpt lat="47.64392268" lon="2.16401003">
        <ele>185.83</ele>
        <time>2025-10-16T07:03:11Z</time>
      </trkpt>
      <trkpt lat="47.64397739" lon="2.16412653">
        <ele>184.3</ele>
        <time>2025-10-16T07:03:21Z</time>
      </trkpt>
      <trkpt lat="47.64403357" lon="2.16424017">
        <ele>182.1</ele>
        <time>2025-10-16T07:03:31Z</time>
      </trkpt>
      <trkpt lat="47.64408421" lon="2.16435459">
        <ele>181.06</ele>
        <time>2025-10-16T07:03:40Z</time>
      </trkpt>
      <trkpt lat="47.64412558" lon="2.16448561">
        <ele>180.16</ele>
        <time>2025-10-16T07:03:50Z</time>
      </trkpt>
      <trkpt lat="47.64415804" lon="2.16461614">
        <ele>178.82</ele>
        <time>2025-10-16T07:04:00Z</time>
      </trkpt>
      <trkpt lat="47.64417808" lon="2.16475829">
        <ele>177.07</ele>
        <time>2025-10-16T07:04:10Z</time>
      </trkpt>
      <trkpt lat="47.64420874" lon="2.16488718">
        <ele>177.86</ele>
        <time>2025-10-16T07:04:19Z</time>
      </trkpt>
      <trkpt lat="47.64425457" lon="2.16501437">
        <ele>179.54</ele>
        <time>2025-10-16T07:04:27Z</time>
      </trkpt>
      <trkpt lat="47.64429456" lon="2.16514425">
        <ele>180.1</ele>
        <time>2025-10-16T07:04:35Z</time>
      </trkpt>
      <trkpt lat="47.64433314" lon="2.16527754">
        <ele>179.72</ele>
        <time>2025-10-16T07:04:44Z</time>
      </trkpt>
      <trkpt lat="47.64435813" lon="2.16541768">
        <ele>178.4</ele>
        <time>2025-10-16T07:04:53Z</time>
      </trkpt>
      <trkpt lat="47.64439691" lon="2.16554438">
        <ele>179.11</ele>
        <time>2025-10-16T07:05:01Z</time>
      </trkpt>
      <trkpt lat="47.64441817" lon="2.16569151">
        <ele>179.95</ele>
        <time>2025-10-16T07:05:10Z</time>
      </trkpt>
      <trkpt lat="47.64446344" lon="2.16583527">
        <ele>180.76</ele>
        <time>2025-10-16T07:05:19Z</time>
      </trkpt>
      <trkpt lat="47.64449988" lon="2.16596872">
        <ele>179.93</ele>
        <time>2025-10-16T07:05:28Z</time>
      </trkpt>
      <trkpt lat="47.64453699" lon="2.16610352">
        <ele>179.77</ele>
        <time>2025-10-16T07:05:37Z</time>
      </trkpt>
      <trkpt lat="47.64454667" lon="2.16624081">
        <ele>179.86</ele>
        <time>2025-10-16T07:05:45Z</time>
      </trkpt>
      <trkpt lat="47.64456413" lon="2.16637992">
        <ele>182.5</ele>
        <time>2025-10-16T07:05:53Z</time>
      </trkpt>
      <trkpt lat="47.64456621" lon="2.1665215">
        <ele>185.41</ele>
        <time>2025-10-16T07:06:01Z</time>
      </trkpt>
      <trkpt lat="47.64456007" lon="2.16665642">
        <ele>186.96</ele>
        <time>2025-10-16T07:06:09Z</time>
      </trkpt>
      <trkpt lat="47.64456445" lon="2.16680342">
        <ele>187.59</ele>
        <time>2025-10-16T07:06:18Z</time>
      </trkpt>
      <trkpt lat="47.64457617" lon="2.16694483">
        <ele>187.12</ele>
        <time>2025-10-16T07:06:26Z</time>
      </trkpt>
      <trkpt lat="47.64459274" lon="2.16707782">
        <ele>187.64</ele>
        <time>2025-10-16T07:06:33Z</time>
      </trkpt>
      <trkpt lat="47.64461585" lon="2.16722291">
        <ele>188.6</ele>
        <time>2025-10-16T07:06:41Z</time>
      </trkpt>
      <trkpt lat="47.64463612" lon="2.16735309">
        <ele>188.92</ele>
        <time>2025-10-16T07:06:48Z</time>
      </trkpt>
      <trkpt lat="47.64465264" lon="2.16750299">
        <ele>189.47</ele>
        <time>2025-10-16T07:06:56Z</time>
      </trkpt>
      <trkpt lat="47.6446738" lon="2.16764927">
        <ele>190.37</ele>
        <time>2025-10-16T07:07:04Z</time>
      </trkpt>
      <trkpt lat="47.64469217" lon="2.16779115">
        <ele>191.34</ele>
        <time>2025-10-16T07:07:12Z</time>
      </trkpt>
      <trkpt lat="47.64470601" lon="2.16793842">
        <ele>191.66</ele>
        <time>2025-10-16T07:07:20Z</time>
      </trkpt>
      <trkpt lat="47.64471784" lon="2.1680855">
        <ele>190.92</ele>
        <time>2025-10-16T07:07:28Z</time>
      </trkpt>
      <trkpt lat="47.64473052" lon="2.16823503">
        <ele>190.15</ele>
        <time>2025-10-16T07:07:36Z</time>
      </trkpt>
      <trkpt lat="47.64474823" lon="2.16837692">
        <ele>189.79</ele>
        <time>2025-10-16T07:07:44Z</time>
      </trkpt>
      <trkpt lat="47.64475985" lon="2.16851933">
        <ele>189.52</ele>
        <time>2025-10-16T07:07:52Z</time>
      </trkpt>
      <trkpt lat="47.64477455" lon="2.16866118">
        <ele>189.3</ele>
        <time>2025-10-16T07:08:00Z</time>
      </trkpt>
      <trkpt lat="47.64477591" lon="2.16880837">
        <ele>189.73</ele>
        <time>2025-10-16T07:08:08Z</time>
      </trkpt>
      <trkpt lat="47.6447808" lon="2.16894679">
        <ele>189.97</ele>
        <time>2025-10-16T07:08:16Z</time>
      </trkpt>
      <trkpt lat="47.64478398" lon="2.1690832">
        <ele>189.79</ele>
        <time>2025-10-16T07:08:24Z</time>
      </trkpt>
      <trkpt lat="47.64478691" lon="2.16922043">
        <ele>189.67</ele>
        <time>2025-10-16T07:08:32Z</time>
      </trkpt>
      <trkpt lat="47.64477866" lon="2.16936993">
        <ele>192.38</ele>
        <time>2025-10-16T07:08:40Z</time>
      </trkpt>
      <trkpt lat="47.64475301" lon="2.16951505">
        <ele>195.01</ele>
        <time>2025-10-16T07:08:47Z</time>
      </trkpt>
      <trkpt lat="47.6447242" lon="2.16965432">
        <ele>193.16</ele>
        <time>2025-10-16T07:08:57Z</time>
      </trkpt>
      <trkpt lat="47.6446757" lon="2.16976755">
        <ele>193.59</ele>
        <time>2025-10-16T07:09:05Z</time>
      </trkpt>
      <trkpt lat="47.64460099" lon="2.16985817">
        <ele>193.5</ele>
        <time>2025-10-16T07:09:14Z</time>
      </trkpt>
      <trkpt lat="47.64453185" lon="2.16994811">
        <ele>193.39</ele>
        <time>2025-10-16T07:09:23Z</time>
      </trkpt>
      <trkpt lat="47.64445437" lon="2.17004165">
        <ele>198.66</ele>
        <time>2025-10-16T07:09:33Z</time>
      </trkpt>
      <trkpt lat="47.64439081" lon="2.1701491">
        <ele>197.78</ele>
        <time>2025-10-16T07:09:42Z</time>
      </trkpt>
      <trkpt lat="47.64432189" lon="2.17024912">
        <ele>197.88</ele>
        <time>2025-10-16T07:09:51Z</time>
      </trkpt>
      <trkpt lat="47.64426103" lon="2.17036432">
        <ele>197.54</ele>
        <time>2025-10-16T07:10:00Z</time>
      </trkpt>
      <trkpt lat="47.64419616" lon="2.17047539">
        <ele>197.8</ele>
        <time>2025-10-16T07:10:09Z</time>
      </trkpt>
      <trkpt lat="47.64413776" lon="2.17059534">
        <ele>199.38</ele>
        <time>2025-10-16T07:10:18Z</time>
      </trkpt>
      <trkpt lat="47.64408638" lon="2.17071262">
        <ele>199.75</ele>
        <time>2025-10-16T07:10:27Z</time>
      </trkpt>
      <trkpt lat="47.64402625" lon="2.17081311">
        <ele>200.56</ele>
        <time>2025-10-16T07:10:36Z</time>
      </trkpt>
      <trkpt lat="47.64396289" lon="2.17092421">
        <ele>202.75</ele>
        <time>2025-10-16T07:10:46Z</time>
      </trkpt>
      <trkpt lat="47.64388256" lon="2.17101478">
        <ele>199.49</ele>
        <time>2025-10-16T07:10:56Z</time>
      </trkpt>
      <trkpt lat="47.64381351" lon="2.17111104">
        <ele>198.6</ele>
        <time>2025-10-16T07:11:04Z</time>
      </trkpt>
      <trkpt lat="47.64374674" lon="2.17121163">
        <ele>198.53</ele>
        <time>2025-10-16T07:11:13Z</time>
      </trkpt>
      <trkpt lat="47.64368097" lon="2.1713031">
        <ele>197.33</ele>
        <time>2025-10-16T07:11:21Z</time>
      </trkpt>
      <trkpt lat="47.64362481" lon="2.17142547">
        <ele>196.9</ele>
        <time>2025-10-16T07:11:30Z</time>
      </trkpt>
      <trkpt lat="47.64359059" lon="2.17154974">
        <ele>196.53</ele>
        <time>2025-10-16T07:11:38Z</time>
      </trkpt>
      <trkpt lat="47.64356026" lon="2.17168882">
        <ele>196.77</ele>
        <time>2025-10-16T07:11:47Z</time>
      </trkpt>
      <trkpt lat="47.64353446" lon="2.17183251">
        <ele>196.5</ele>
        <time>2025-10-16T07:11:56Z</time>
      </trkpt>
      <trkpt lat="47.6435068" lon="2.17197222">
        <ele>196.44</ele>
        <time>2025-10-16T07:12:04Z</time>
      </trkpt>
      <trkpt lat="47.64348225" lon="2.17211423">
        <ele>197.75</ele>
        <time>2025-10-16T07:12:12Z</time>
      </trkpt>
      <trkpt lat="47.64347236" lon="2.17225298">
        <ele>197.3</ele>
        <time>2025-10-16T07:12:20Z</time>
      </trkpt>
      <trkpt lat="47.64345448" lon="2.17239536">
        <ele>197.47</ele>
        <time>2025-10-16T07:12:29Z</time>
      </trkpt>
      <trkpt lat="47.64343906" lon="2.17253539">
        <ele>197.31</ele>
        <time>2025-10-16T07:12:38Z</time>
      </trkpt>
      <trkpt lat="47.64343169" lon="2.17268372">
        <ele>197.64</ele>
        <time>2025-10-16T07:12:47Z</time>
      </trkpt>
      <trkpt lat="47.64340922" lon="2.17282491">
        <ele>197.06</ele>
        <time>2025-10-16T07:12:56Z</time>
      </trkpt>
      <trkpt lat="47.64339178" lon="2.17296806">
        <ele>194.67</ele>
        <time>2025-10-16T07:13:05Z</time>
      </trkpt>
      <trkpt lat="47.64337448" lon="2.17311392">
        <ele>194.19</ele>
        <time>2025-10-16T07:13:14Z</time>
      </trkpt>
      <trkpt lat="47.64334796" lon="2.17324496">
        <ele>193.98</ele>
        <time>2025-10-16T07:13:22Z</time>
      </trkpt>
      <trkpt lat="47.643318" lon="2.17337162">
        <ele>195</ele>
        <time>2025-10-16T07:13:30Z</time>
      </trkpt>
      <trkpt lat="47.64328061" lon="2.17349832">
        <ele>195.01</ele>
        <time>2025-10-16T07:13:38Z</time>
      </trkpt>
      <trkpt lat="47.64324389" lon="2.17363473">
        <ele>193.9</ele>
        <time>2025-10-16T07:13:47Z</time>
      </trkpt>
      <trkpt lat="47.64319775" lon="2.17376283">
        <ele>191.99</ele>
        <time>2025-10-16T07:13:56Z</time>
      </trkpt>
      <trkpt lat="47.64316112" lon="2.17388479">
        <ele>192.41</ele>
        <time>2025-10-16T07:14:04Z</time>
      </trkpt>
      <trkpt lat="47.64311995" lon="2.174008">
        <ele>192.46</ele>
        <time>2025-10-16T07:14:12Z</time>
      </trkpt>
      <trkpt lat="47.6430782" lon="2.17412932">
        <ele>193.34</ele>
        <time>2025-10-16T07:14:20Z</time>
      </trkpt>
      <trkpt lat="47.64304183" lon="2.17425512">
        <ele>193.78</ele>
        <time>2025-10-16T07:14:29Z</time>
      </trkpt>
      <trkpt lat="47.64300959" lon="2.17438111">
        <ele>193.91</ele>
        <time>2025-10-16T07:14:37Z</time>
      </trkpt>
      <trkpt lat="47.64297276" lon="2.17451506">
        <ele>193.93</ele>
        <time>2025-10-16T07:14:45Z</time>
      </trkpt>
      <trkpt lat="47.64293771" lon="2.1746441">
        <ele>193.57</ele>
        <time>2025-10-16T07:14:53Z</time>
      </trkpt>
      <trkpt lat="47.64290229" lon="2.17479754">
        <ele>196.52</ele>
        <time>2025-10-16T07:15:03Z</time>
      </trkpt>
      <trkpt lat="47.64287577" lon="2.17494104">
        <ele>195.75</ele>
        <time>2025-10-16T07:15:12Z</time>
      </trkpt>
      <trkpt lat="47.642835" lon="2.17506741">
        <ele>194.68</ele>
        <time>2025-10-16T07:15:21Z</time>
      </trkpt>
      <trkpt lat="47.64279574" lon="2.17519223">
        <ele>194.48</ele>
        <time>2025-10-16T07:15:30Z</time>
      </trkpt>
      <trkpt lat="47.6427571" lon="2.17531566">
        <ele>193.65</ele>
        <time>2025-10-16T07:15:38Z</time>
      </trkpt>
      <trkpt lat="47.64272298" lon="2.17545313">
        <ele>193.72</ele>
        <time>2025-10-16T07:15:47Z</time>
      </trkpt>
      <trkpt lat="47.64267415" lon="2.1755765">
        <ele>193.45</ele>
        <time>2025-10-16T07:15:56Z</time>
      </trkpt>
      <trkpt lat="47.64263315" lon="2.17570742">
        <ele>195.56</ele>
        <time>2025-10-16T07:16:04Z</time>
      </trkpt>
      <trkpt lat="47.6426009" lon="2.1758461">
        <ele>197.56</ele>
        <time>2025-10-16T07:16:13Z</time>
      </trkpt>
      <trkpt lat="47.64257942" lon="2.17601486">
        <ele>201.38</ele>
        <time>2025-10-16T07:16:26Z</time>
      </trkpt>
      <trkpt lat="47.64254307" lon="2.17615191">
        <ele>204.4</ele>
        <time>2025-10-16T07:16:39Z</time>
      </trkpt>
      <trkpt lat="47.64250938" lon="2.17628615">
        <ele>204.14</ele>
        <time>2025-10-16T07:16:49Z</time>
      </trkpt>
      <trkpt lat="47.64247838" lon="2.17641576">
        <ele>202.24</ele>
        <time>2025-10-16T07:16:58Z</time>
      </trkpt>
      <trkpt lat="47.64244201" lon="2.17655172">
        <ele>199.67</ele>
        <time>2025-10-16T07:17:08Z</time>
      </trkpt>
      <trkpt lat="47.64239963" lon="2.176679">
        <ele>199.17</ele>
        <time>2025-10-16T07:17:17Z</time>
      </trkpt>
      <trkpt lat="47.64239613" lon="2.17681878">
        <ele>194.92</ele>
        <time>2025-10-16T07:17:27Z</time>
      </trkpt>
      <trkpt lat="47.6424161" lon="2.17695246">
        <ele>195.01</ele>
        <time>2025-10-16T07:17:36Z</time>
      </trkpt>
      <trkpt lat="47.64244045" lon="2.17708591">
        <ele>193.18</ele>
        <time>2025-10-16T07:17:45Z</time>
      </trkpt>
      <trkpt lat="47.64245704" lon="2.17722774">
        <ele>191.5</ele>
        <time>2025-10-16T07:17:54Z</time>
      </trkpt>
      <trkpt lat="47.64248485" lon="2.1773677">
        <ele>195.18</ele>
        <time>2025-10-16T07:18:04Z</time>
      </trkpt>
      <trkpt lat="47.64250035" lon="2.17750373">
        <ele>194.01</ele>
        <time>2025-10-16T07:18:13Z</time>
      </trkpt>
      <trkpt lat="47.64251416" lon="2.17764006">
        <ele>192.92</ele>
        <time>2025-10-16T07:18:22Z</time>
      </trkpt>
      <trkpt lat="47.64252764" lon="2.17777683">
        <ele>193.5</ele>
        <time>2025-10-16T07:18:30Z</time>
      </trkpt>
      <trkpt lat="47.64253715" lon="2.17791521">
        <ele>194.47</ele>
        <time>2025-10-16T07:18:39Z</time>
      </trkpt>
      <trkpt lat="47.64253971" lon="2.17805366">
        <ele>197.11</ele>
        <time>2025-10-16T07:18:47Z</time>
      </trkpt>
      <trkpt lat="47.64255896" lon="2.17819391">
        <ele>196.79</ele>
        <time>2025-10-16T07:18:56Z</time>
      </trkpt>
      <trkpt lat="47.64258313" lon="2.1783321">
        <ele>197.47</ele>
        <time>2025-10-16T07:19:05Z</time>
      </trkpt>
      <trkpt lat="47.64259323" lon="2.17846939">
        <ele>196.01</ele>
        <time>2025-10-16T07:19:15Z</time>
      </trkpt>
      <trkpt lat="47.64260792" lon="2.17860201">
        <ele>196.17</ele>
        <time>2025-10-16T07:19:24Z</time>
      </trkpt>
      <trkpt lat="47.64262367" lon="2.1787332">
        <ele>195.86</ele>
        <time>2025-10-16T07:19:33Z</time>
      </trkpt>
      <trkpt lat="47.64264129" lon="2.17887165">
        <ele>194.37</ele>
        <time>2025-10-16T07:19:43Z</time>
      </trkpt>
      <trkpt lat="47.64265412" lon="2.17900537">
        <ele>192.4</ele>
        <time>2025-10-16T07:19:52Z</time>
      </trkpt>
      <trkpt lat="47.64269139" lon="2.17913609">
        <ele>196.19</ele>
        <time>2025-10-16T07:20:03Z</time>
      </trkpt>
      <trkpt lat="47.64276567" lon="2.17922121">
        <ele>197.48</ele>
        <time>2025-10-16T07:20:20Z</time>
      </trkpt>
      <trkpt lat="47.64284447" lon="2.17928848">
        <ele>195.45</ele>
        <time>2025-10-16T07:20:29Z</time>
      </trkpt>
      <trkpt lat="47.64293648" lon="2.17931094">
        <ele>193.95</ele>
        <time>2025-10-16T07:20:38Z</time>
      </trkpt>
      <trkpt lat="47.64303432" lon="2.17934574">
        <ele>195.14</ele>
        <time>2025-10-16T07:20:45Z</time>
      </trkpt>
      <trkpt lat="47.64313053" lon="2.17939022">
        <ele>193.77</ele>
        <time>2025-10-16T07:20:54Z</time>
      </trkpt>
      <trkpt lat="47.64322262" lon="2.17943511">
        <ele>190.85</ele>
        <time>2025-10-16T07:21:03Z</time>
      </trkpt>
      <trkpt lat="47.64331768" lon="2.1794815">
        <ele>191.19</ele>
        <time>2025-10-16T07:21:12Z</time>
      </trkpt>
      <trkpt lat="47.64340832" lon="2.1795234">
        <ele>193.8</ele>
        <time>2025-10-16T07:21:20Z</time>
      </trkpt>
      <trkpt lat="47.64350277" lon="2.17956561">
        <ele>192.74</ele>
        <time>2025-10-16T07:21:29Z</time>
      </trkpt>
      <trkpt lat="47.64359532" lon="2.17959273">
        <ele>194.4</ele>
        <time>2025-10-16T07:21:38Z</time>
      </trkpt>
      <trkpt lat="47.64368733" lon="2.17964119">
        <ele>197.78</ele>
        <time>2025-10-16T07:21:48Z</time>
      </trkpt>
      <trkpt lat="47.64378045" lon="2.17968128">
        <ele>196.68</ele>
        <time>2025-10-16T07:21:57Z</time>
      </trkpt>
      <trkpt lat="47.64387267" lon="2.17972264">
        <ele>195.89</ele>
        <time>2025-10-16T07:22:06Z</time>
      </trkpt>
      <trkpt lat="47.64397039" lon="2.17975149">
        <ele>195.06</ele>
        <time>2025-10-16T07:22:15Z</time>
      </trkpt>
      <trkpt lat="47.64405766" lon="2.17978548">
        <ele>194.19</ele>
        <time>2025-10-16T07:22:23Z</time>
      </trkpt>
      <trkpt lat="47.64414726" lon="2.17981342">
        <ele>192.59</ele>
        <time>2025-10-16T07:22:32Z</time>
      </trkpt>
      <trkpt lat="47.64423401" lon="2.17985817">
        <ele>193.25</ele>
        <time>2025-10-16T07:22:40Z</time>
      </trkpt>
      <trkpt lat="47.64432039" lon="2.17991126">
        <ele>191.78</ele>
        <time>2025-10-16T07:22:49Z</time>
      </trkpt>
      <trkpt lat="47.64439962" lon="2.17997488">
        <ele>193.37</ele>
        <time>2025-10-16T07:22:57Z</time>
      </trkpt>
      <trkpt lat="47.64448579" lon="2.18001932">
        <ele>192.02</ele>
        <time>2025-10-16T07:23:05Z</time>
      </trkpt>
      <trkpt lat="47.64456905" lon="2.18007639">
        <ele>192.76</ele>
        <time>2025-10-16T07:23:13Z</time>
      </trkpt>
      <trkpt lat="47.64466523" lon="2.18011502">
        <ele>195.05</ele>
        <time>2025-10-16T07:23:22Z</time>
      </trkpt>
      <trkpt lat="47.6447606" lon="2.18016623">
        <ele>192.45</ele>
        <time>2025-10-16T07:23:31Z</time>
      </trkpt>
      <trkpt lat="47.64485682" lon="2.18019488">
        <ele>193.7</ele>
        <time>2025-10-16T07:23:40Z</time>
      </trkpt>
      <trkpt lat="47.64495557" lon="2.18021031">
        <ele>193.86</ele>
        <time>2025-10-16T07:23:49Z</time>
      </trkpt>
      <trkpt lat="47.64504772" lon="2.18022037">
        <ele>193.71</ele>
        <time>2025-10-16T07:23:57Z</time>
      </trkpt>
      <trkpt lat="47.6451383" lon="2.18023603">
        <ele>194.26</ele>
        <time>2025-10-16T07:24:05Z</time>
      </trkpt>
      <trkpt lat="47.64523717" lon="2.18024736">
        <ele>193.18</ele>
        <time>2025-10-16T07:24:14Z</time>
      </trkpt>
      <trkpt lat="47.64532431" lon="2.18031114">
        <ele>191.48</ele>
        <time>2025-10-16T07:24:23Z</time>
      </trkpt>
      <trkpt lat="47.64542043" lon="2.18031649">
        <ele>191.54</ele>
        <time>2025-10-16T07:24:32Z</time>
      </trkpt>
      <trkpt lat="47.64551427" lon="2.18032234">
        <ele>191.92</ele>
        <time>2025-10-16T07:24:41Z</time>
      </trkpt>
      <trkpt lat="47.64560815" lon="2.18034945">
        <ele>190.78</ele>
        <time>2025-10-16T07:24:50Z</time>
      </trkpt>
      <trkpt lat="47.64570266" lon="2.18035723">
        <ele>190.49</ele>
        <time>2025-10-16T07:24:59Z</time>
      </trkpt>
      <trkpt lat="47.64579899" lon="2.18035626">
        <ele>189.66</ele>
        <time>2025-10-16T07:25:07Z</time>
      </trkpt>
      <trkpt lat="47.64589799" lon="2.18038695">
        <ele>188.93</ele>
        <time>2025-10-16T07:25:16Z</time>
      </trkpt>
      <trkpt lat="47.64600911" lon="2.18040459">
        <ele>191.38</ele>
        <time>2025-10-16T07:25:26Z</time>
      </trkpt>
      <trkpt lat="47.64610357" lon="2.1804311">
        <ele>189.08</ele>
        <time>2025-10-16T07:25:34Z</time>
      </trkpt>
      <trkpt lat="47.64619823" lon="2.18043898">
        <ele>192.05</ele>
        <time>2025-10-16T07:25:42Z</time>
      </trkpt>
      <trkpt lat="47.64628907" lon="2.18043886">
        <ele>193.09</ele>
        <time>2025-10-16T07:25:51Z</time>
      </trkpt>
      <trkpt lat="47.64638044" lon="2.18042881">
        <ele>193.84</ele>
        <time>2025-10-16T07:26:00Z</time>
      </trkpt>
      <trkpt lat="47.64646836" lon="2.18038022">
        <ele>193.28</ele>
        <time>2025-10-16T07:26:09Z</time>
      </trkpt>
      <trkpt lat="47.64654423" lon="2.18030231">
        <ele>191.54</ele>
        <time>2025-10-16T07:26:18Z</time>
      </trkpt>
      <trkpt lat="47.64662131" lon="2.18022965">
        <ele>191.86</ele>
        <time>2025-10-16T07:26:27Z</time>
      </trkpt>
      <trkpt lat="47.64669269" lon="2.18014539">
        <ele>192.5</ele>
        <time>2025-10-16T07:26:36Z</time>
      </trkpt>
      <trkpt lat="47.64677285" lon="2.18006076">
        <ele>192.02</ele>
        <time>2025-10-16T07:26:46Z</time>
      </trkpt>
      <trkpt lat="47.64684518" lon="2.17997938">
        <ele>192.6</ele>
        <time>2025-10-16T07:26:54Z</time>
      </trkpt>
      <trkpt lat="47.64692696" lon="2.17989565">
        <ele>193.29</ele>
        <time>2025-10-16T07:27:03Z</time>
      </trkpt>
      <trkpt lat="47.64700202" lon="2.17980581">
        <ele>193.75</ele>
        <time>2025-10-16T07:27:12Z</time>
      </trkpt>
      <trkpt lat="47.64708122" lon="2.17973343">
        <ele>195.93</ele>
        <time>2025-10-16T07:27:21Z</time>
      </trkpt>
      <trkpt lat="47.64716029" lon="2.179812">
        <ele>197.02</ele>
        <time>2025-10-16T07:28:31Z</time>
      </trkpt>
      <trkpt lat="47.64715842" lon="2.18000654">
        <ele>195.12</ele>
        <time>2025-10-16T07:28:45Z</time>
      </trkpt>
      <trkpt lat="47.64716218" lon="2.18015128">
        <ele>194.95</ele>
        <time>2025-10-16T07:28:55Z</time>
      </trkpt>
      <trkpt lat="47.64715781" lon="2.18029805">
        <ele>194.69</ele>
        <time>2025-10-16T07:29:05Z</time>
      </trkpt>
      <trkpt lat="47.6471515" lon="2.18043602">
        <ele>194.92</ele>
        <time>2025-10-16T07:29:15Z</time>
      </trkpt>
      <trkpt lat="47.64715063" lon="2.1805832">
        <ele>194.48</ele>
        <time>2025-10-16T07:29:25Z</time>
      </trkpt>
      <trkpt lat="47.64715435" lon="2.18072972">
        <ele>195</ele>
        <time>2025-10-16T07:29:34Z</time>
      </trkpt>
      <trkpt lat="47.64715357" lon="2.18087176">
        <ele>194.59</ele>
        <time>2025-10-16T07:29:43Z</time>
      </trkpt>
      <trkpt lat="47.64715041" lon="2.18100693">
        <ele>193.42</ele>
        <time>2025-10-16T07:29:52Z</time>
      </trkpt>
      <trkpt lat="47.64715077" lon="2.18116468">
        <ele>193.18</ele>
        <time>2025-10-16T07:30:02Z</time>
      </trkpt>
      <trkpt lat="47.6471513" lon="2.18130995">
        <ele>192.68</ele>
        <time>2025-10-16T07:30:11Z</time>
      </trkpt>
      <trkpt lat="47.64715585" lon="2.18145433">
        <ele>192.94</ele>
        <time>2025-10-16T07:30:20Z</time>
      </trkpt>
      <trkpt lat="47.64716059" lon="2.18158843">
        <ele>192.48</ele>
        <time>2025-10-16T07:30:29Z</time>
      </trkpt>
      <trkpt lat="47.64716766" lon="2.18173602">
        <ele>192.19</ele>
        <time>2025-10-16T07:30:38Z</time>
      </trkpt>
      <trkpt lat="47.6471734" lon="2.18187148">
        <ele>191.99</ele>
        <time>2025-10-16T07:30:46Z</time>
      </trkpt>
      <trkpt lat="47.64718889" lon="2.18203118">
        <ele>191.47</ele>
        <time>2025-10-16T07:30:56Z</time>
      </trkpt>
      <trkpt lat="47.64720556" lon="2.18217805">
        <ele>191.76</ele>
        <time>2025-10-16T07:31:05Z</time>
      </trkpt>
      <trkpt lat="47.64722362" lon="2.18231663">
        <ele>192.36</ele>
        <time>2025-10-16T07:31:14Z</time>
      </trkpt>
      <trkpt lat="47.6472399" lon="2.18246068">
        <ele>192.16</ele>
        <time>2025-10-16T07:31:24Z</time>
      </trkpt>
      <trkpt lat="47.64726296" lon="2.18260387">
        <ele>191.67</ele>
        <time>2025-10-16T07:31:33Z</time>
      </trkpt>
      <trkpt lat="47.64729538" lon="2.18273617">
        <ele>191.53</ele>
        <time>2025-10-16T07:31:42Z</time>
      </trkpt>
      <trkpt lat="47.64733369" lon="2.18286193">
        <ele>190.35</ele>
        <time>2025-10-16T07:31:51Z</time>
      </trkpt>
      <trkpt lat="47.6473773" lon="2.18297834">
        <ele>189.82</ele>
        <time>2025-10-16T07:31:59Z</time>
      </trkpt>
      <trkpt lat="47.64743142" lon="2.18310174">
        <ele>188.98</ele>
        <time>2025-10-16T07:32:08Z</time>
      </trkpt>
      <trkpt lat="47.64748767" lon="2.18322395">
        <ele>187.71</ele>
        <time>2025-10-16T07:32:17Z</time>
      </trkpt>
      <trkpt lat="47.64753933" lon="2.18333366">
        <ele>187.83</ele>
        <time>2025-10-16T07:32:25Z</time>
      </trkpt>
      <trkpt lat="47.64759968" lon="2.18344945">
        <ele>187.99</ele>
        <time>2025-10-16T07:32:34Z</time>
      </trkpt>
      <trkpt lat="47.64769668" lon="2.18346204">
        <ele>189.06</ele>
        <time>2025-10-16T07:32:45Z</time>
      </trkpt>
      <trkpt lat="47.64775629" lon="2.1833589">
        <ele>188.34</ele>
        <time>2025-10-16T07:32:54Z</time>
      </trkpt>
      <trkpt lat="47.64783115" lon="2.18325973">
        <ele>187.66</ele>
        <time>2025-10-16T07:33:03Z</time>
      </trkpt>
      <trkpt lat="47.64790333" lon="2.18315919">
        <ele>186.97</ele>
        <time>2025-10-16T07:33:12Z</time>
      </trkpt>
      <trkpt lat="47.64797049" lon="2.18304996">
        <ele>186.98</ele>
        <time>2025-10-16T07:33:21Z</time>
      </trkpt>
      <trkpt lat="47.64803923" lon="2.18296029">
        <ele>185.99</ele>
        <time>2025-10-16T07:33:29Z</time>
      </trkpt>
      <trkpt lat="47.64811472" lon="2.18286192">
        <ele>185.75</ele>
        <time>2025-10-16T07:33:38Z</time>
      </trkpt>
      <trkpt lat="47.64819138" lon="2.18276596">
        <ele>184.71</ele>
        <time>2025-10-16T07:33:47Z</time>
      </trkpt>
      <trkpt lat="47.6482547" lon="2.18267104">
        <ele>184.68</ele>
        <time>2025-10-16T07:33:55Z</time>
      </trkpt>
      <trkpt lat="47.64832187" lon="2.18257408">
        <ele>184.91</ele>
        <time>2025-10-16T07:34:03Z</time>
      </trkpt>
      <trkpt lat="47.64838961" lon="2.18248571">
        <ele>184.44</ele>
        <time>2025-10-16T07:34:11Z</time>
      </trkpt>
      <trkpt lat="47.64846197" lon="2.18239185">
        <ele>184.63</ele>
        <time>2025-10-16T07:34:19Z</time>
      </trkpt>
      <trkpt lat="47.64852751" lon="2.18229212">
        <ele>184.38</ele>
        <time>2025-10-16T07:34:27Z</time>
      </trkpt>
      <trkpt lat="47.64860536" lon="2.18220538">
        <ele>184.89</ele>
        <time>2025-10-16T07:34:36Z</time>
      </trkpt>
      <trkpt lat="47.64867452" lon="2.18211796">
        <ele>185.23</ele>
        <time>2025-10-16T07:34:44Z</time>
      </trkpt>
      <trkpt lat="47.64874529" lon="2.182022">
        <ele>184.67</ele>
        <time>2025-10-16T07:34:52Z</time>
      </trkpt>
      <trkpt lat="47.64881795" lon="2.18192391">
        <ele>183.51</ele>
        <time>2025-10-16T07:35:01Z</time>
      </trkpt>
      <trkpt lat="47.64889489" lon="2.18183317">
        <ele>183.06</ele>
        <time>2025-10-16T07:35:09Z</time>
      </trkpt>
      <trkpt lat="47.64896868" lon="2.18174666">
        <ele>182.39</ele>
        <time>2025-10-16T07:35:17Z</time>
      </trkpt>
      <trkpt lat="47.64904133" lon="2.18164688">
        <ele>183</ele>
        <time>2025-10-16T07:35:25Z</time>
      </trkpt>
      <trkpt lat="47.64911367" lon="2.18154131">
        <ele>182.41</ele>
        <time>2025-10-16T07:35:34Z</time>
      </trkpt>
      <trkpt lat="47.64918664" lon="2.18145257">
        <ele>184.97</ele>
        <time>2025-10-16T07:35:42Z</time>
      </trkpt>
      <trkpt lat="47.649258" lon="2.18136248">
        <ele>187.62</ele>
        <time>2025-10-16T07:35:50Z</time>
      </trkpt>
      <trkpt lat="47.6493411" lon="2.18126423">
        <ele>190.93</ele>
        <time>2025-10-16T07:35:58Z</time>
      </trkpt>
      <trkpt lat="47.64942238" lon="2.18118434">
        <ele>192.01</ele>
        <time>2025-10-16T07:36:07Z</time>
      </trkpt>
      <trkpt lat="47.64949948" lon="2.18109433">
        <ele>192.9</ele>
        <time>2025-10-16T07:36:16Z</time>
      </trkpt>
      <trkpt lat="47.64957563" lon="2.18099662">
        <ele>193.58</ele>
        <time>2025-10-16T07:36:25Z</time>
      </trkpt>
      <trkpt lat="47.64965564" lon="2.18090767">
        <ele>192.46</ele>
        <time>2025-10-16T07:36:34Z</time>
      </trkpt>
      <trkpt lat="47.64974388" lon="2.18083582">
        <ele>193.08</ele>
        <time>2025-10-16T07:36:43Z</time>
      </trkpt>
      <trkpt lat="47.64981078" lon="2.18074615">
        <ele>193.22</ele>
        <time>2025-10-16T07:36:51Z</time>
      </trkpt>
      <trkpt lat="47.64988551" lon="2.1806702">
        <ele>193.38</ele>
        <time>2025-10-16T07:36:59Z</time>
      </trkpt>
      <trkpt lat="47.64997133" lon="2.18059836">
        <ele>192.72</ele>
        <time>2025-10-16T07:37:08Z</time>
      </trkpt>
      <trkpt lat="47.65005074" lon="2.18052095">
        <ele>192.72</ele>
        <time>2025-10-16T07:37:17Z</time>
      </trkpt>
      <trkpt lat="47.65012829" lon="2.18044759">
        <ele>192.49</ele>
        <time>2025-10-16T07:37:25Z</time>
      </trkpt>
      <trkpt lat="47.65021157" lon="2.18036606">
        <ele>192.37</ele>
        <time>2025-10-16T07:37:34Z</time>
      </trkpt>
      <trkpt lat="47.65028569" lon="2.18028855">
        <ele>192.18</ele>
        <time>2025-10-16T07:37:42Z</time>
      </trkpt>
      <trkpt lat="47.65036752" lon="2.18020778">
        <ele>191.99</ele>
        <time>2025-10-16T07:37:50Z</time>
      </trkpt>
      <trkpt lat="47.65045579" lon="2.18011144">
        <ele>192.34</ele>
        <time>2025-10-16T07:37:59Z</time>
      </trkpt>
      <trkpt lat="47.65053509" lon="2.18002962">
        <ele>192.93</ele>
        <time>2025-10-16T07:38:07Z</time>
      </trkpt>
      <trkpt lat="47.65060891" lon="2.17995211">
        <ele>193.07</ele>
        <time>2025-10-16T07:38:15Z</time>
      </trkpt>
      <trkpt lat="47.65068053" lon="2.17984819">
        <ele>194.25</ele>
        <time>2025-10-16T07:38:23Z</time>
      </trkpt>
      <trkpt lat="47.65075839" lon="2.17976126">
        <ele>195.01</ele>
        <time>2025-10-16T07:38:31Z</time>
      </trkpt>
      <trkpt lat="47.65083145" lon="2.17966814">
        <ele>194.4</ele>
        <time>2025-10-16T07:38:39Z</time>
      </trkpt>
      <trkpt lat="47.65087856" lon="2.17955236">
        <ele>193.95</ele>
        <time>2025-10-16T07:38:47Z</time>
      </trkpt>
      <trkpt lat="47.65092912" lon="2.1794342">
        <ele>193.64</ele>
        <time>2025-10-16T07:38:55Z</time>
      </trkpt>
      <trkpt lat="47.65098809" lon="2.17931842">
        <ele>193</ele>
        <time>2025-10-16T07:39:03Z</time>
      </trkpt>
      <trkpt lat="47.65103823" lon="2.17919007">
        <ele>196.19</ele>
        <time>2025-10-16T07:39:10Z</time>
      </trkpt>
      <trkpt lat="47.65108488" lon="2.17906018">
        <ele>196.51</ele>
        <time>2025-10-16T07:39:18Z</time>
      </trkpt>
      <trkpt lat="47.65112926" lon="2.17893915">
        <ele>197.58</ele>
        <time>2025-10-16T07:39:26Z</time>
      </trkpt>
      <trkpt lat="47.65117158" lon="2.17881063">
        <ele>196.74</ele>
        <time>2025-10-16T07:39:34Z</time>
      </trkpt>
      <trkpt lat="47.65121371" lon="2.17868903">
        <ele>196.15</ele>
        <time>2025-10-16T07:39:42Z</time>
      </trkpt>
      <trkpt lat="47.65124389" lon="2.17854464">
        <ele>199.23</ele>
        <time>2025-10-16T07:39:50Z</time>
      </trkpt>
      <trkpt lat="47.65129316" lon="2.17840637">
        <ele>201.35</ele>
        <time>2025-10-16T07:39:58Z</time>
      </trkpt>
      <trkpt lat="47.65133713" lon="2.17828961">
        <ele>202.51</ele>
        <time>2025-10-16T07:40:05Z</time>
      </trkpt>
      <trkpt lat="47.65140087" lon="2.17817998">
        <ele>205.14</ele>
        <time>2025-10-16T07:40:14Z</time>
      </trkpt>
      <trkpt lat="47.65145071" lon="2.17805891">
        <ele>203.93</ele>
        <time>2025-10-16T07:40:23Z</time>
      </trkpt>
      <trkpt lat="47.65149481" lon="2.17793318">
        <ele>203.21</ele>
        <time>2025-10-16T07:40:32Z</time>
      </trkpt>
      <trkpt lat="47.65154759" lon="2.17780943">
        <ele>202.15</ele>
        <time>2025-10-16T07:40:41Z</time>
      </trkpt>
      <trkpt lat="47.65159712" lon="2.17768257">
        <ele>201.91</ele>
        <time>2025-10-16T07:40:50Z</time>
      </trkpt>
      <trkpt lat="47.65166585" lon="2.17757448">
        <ele>201.11</ele>
        <time>2025-10-16T07:40:59Z</time>
      </trkpt>
      <trkpt lat="47.65172389" lon="2.1774645">
        <ele>199.96</ele>
        <time>2025-10-16T07:41:08Z</time>
      </trkpt>
      <trkpt lat="47.65177308" lon="2.17733695">
        <ele>197.85</ele>
        <time>2025-10-16T07:41:18Z</time>
      </trkpt>
      <trkpt lat="47.65182354" lon="2.17722563">
        <ele>197.8</ele>
        <time>2025-10-16T07:41:26Z</time>
      </trkpt>
      <trkpt lat="47.6518772" lon="2.17710466">
        <ele>196.78</ele>
        <time>2025-10-16T07:41:35Z</time>
      </trkpt>
      <trkpt lat="47.651918" lon="2.17698586">
        <ele>196.58</ele>
        <time>2025-10-16T07:41:44Z</time>
      </trkpt>
      <trkpt lat="47.65196426" lon="2.17686738">
        <ele>196.86</ele>
        <time>2025-10-16T07:41:52Z</time>
      </trkpt>
      <trkpt lat="47.65202215" lon="2.17672547">
        <ele>195.94</ele>
        <time>2025-10-16T07:42:02Z</time>
      </trkpt>
      <trkpt lat="47.65207986" lon="2.17661507">
        <ele>195.18</ele>
        <time>2025-10-16T07:42:10Z</time>
      </trkpt>
      <trkpt lat="47.65214474" lon="2.17651159">
        <ele>195.59</ele>
        <time>2025-10-16T07:42:19Z</time>
      </trkpt>
      <trkpt lat="47.65221669" lon="2.17642845">
        <ele>194.94</ele>
        <time>2025-10-16T07:42:27Z</time>
      </trkpt>
      <trkpt lat="47.65228791" lon="2.17633904">
        <ele>195.88</ele>
        <time>2025-10-16T07:42:35Z</time>
      </trkpt>
      <trkpt lat="47.6523591" lon="2.17624961">
        <ele>197.06</ele>
        <time>2025-10-16T07:42:43Z</time>
      </trkpt>
      <trkpt lat="47.65243848" lon="2.17616638">
        <ele>196.6</ele>
        <time>2025-10-16T07:42:52Z</time>
      </trkpt>
      <trkpt lat="47.65251463" lon="2.17608061">
        <ele>195.42</ele>
        <time>2025-10-16T07:43:01Z</time>
      </trkpt>
      <trkpt lat="47.65258223" lon="2.17598874">
        <ele>194.7</ele>
        <time>2025-10-16T07:43:09Z</time>
      </trkpt>
      <trkpt lat="47.65265515" lon="2.17589062">
        <ele>194.55</ele>
        <time>2025-10-16T07:43:17Z</time>
      </trkpt>
      <trkpt lat="47.65271834" lon="2.1757832">
        <ele>193.67</ele>
        <time>2025-10-16T07:43:25Z</time>
      </trkpt>
      <trkpt lat="47.65278891" lon="2.17567385">
        <ele>193.13</ele>
        <time>2025-10-16T07:43:33Z</time>
      </trkpt>
      <trkpt lat="47.6528604" lon="2.17558768">
        <ele>192.66</ele>
        <time>2025-10-16T07:43:41Z</time>
      </trkpt>
      <trkpt lat="47.65292995" lon="2.1754953">
        <ele>192.39</ele>
        <time>2025-10-16T07:43:49Z</time>
      </trkpt>
      <trkpt lat="47.65299667" lon="2.17540151">
        <ele>192</ele>
        <time>2025-10-16T07:43:57Z</time>
      </trkpt>
      <trkpt lat="47.6530607" lon="2.17530285">
        <ele>191.31</ele>
        <time>2025-10-16T07:44:05Z</time>
      </trkpt>
      <trkpt lat="47.65312338" lon="2.17518823">
        <ele>191.58</ele>
        <time>2025-10-16T07:44:14Z</time>
      </trkpt>
      <trkpt lat="47.65318199" lon="2.17507875">
        <ele>192.06</ele>
        <time>2025-10-16T07:44:22Z</time>
      </trkpt>
      <trkpt lat="47.65324624" lon="2.17497839">
        <ele>192.66</ele>
        <time>2025-10-16T07:44:30Z</time>
      </trkpt>
      <trkpt lat="47.65331372" lon="2.17488266">
        <ele>192.56</ele>
        <time>2025-10-16T07:44:38Z</time>
      </trkpt>
      <trkpt lat="47.65337692" lon="2.17477939">
        <ele>192.68</ele>
        <time>2025-10-16T07:44:46Z</time>
      </trkpt>
      <trkpt lat="47.65343819" lon="2.17467689">
        <ele>192.4</ele>
        <time>2025-10-16T07:44:54Z</time>
      </trkpt>
      <trkpt lat="47.65349755" lon="2.1745742">
        <ele>191.8</ele>
        <time>2025-10-16T07:45:02Z</time>
      </trkpt>
      <trkpt lat="47.65355495" lon="2.17447006">
        <ele>191.78</ele>
        <time>2025-10-16T07:45:10Z</time>
      </trkpt>
      <trkpt lat="47.65359617" lon="2.17435099">
        <ele>193.96</ele>
        <time>2025-10-16T07:46:27Z</time>
      </trkpt>
      <trkpt lat="47.65365005" lon="2.17423664">
        <ele>194.72</ele>
        <time>2025-10-16T07:46:36Z</time>
      </trkpt>
      <trkpt lat="47.65372849" lon="2.17410705">
        <ele>195.41</ele>
        <time>2025-10-16T07:46:47Z</time>
      </trkpt>
      <trkpt lat="47.65376983" lon="2.17397216">
        <ele>197.43</ele>
        <time>2025-10-16T07:46:56Z</time>
      </trkpt>
      <trkpt lat="47.65383315" lon="2.17387209">
        <ele>195.95</ele>
        <time>2025-10-16T07:47:05Z</time>
      </trkpt>
      <trkpt lat="47.65390421" lon="2.17376998">
        <ele>195.58</ele>
        <time>2025-10-16T07:47:15Z</time>
      </trkpt>
      <trkpt lat="47.65396913" lon="2.17365971">
        <ele>196.11</ele>
        <time>2025-10-16T07:47:24Z</time>
      </trkpt>
      <trkpt lat="47.65403509" lon="2.17356213">
        <ele>195.93</ele>
        <time>2025-10-16T07:47:32Z</time>
      </trkpt>
      <trkpt lat="47.6541089" lon="2.173461">
        <ele>196.11</ele>
        <time>2025-10-16T07:47:41Z</time>
      </trkpt>
      <trkpt lat="47.65417463" lon="2.17335363">
        <ele>195.94</ele>
        <time>2025-10-16T07:47:49Z</time>
      </trkpt>
      <trkpt lat="47.65424037" lon="2.17326207">
        <ele>194.79</ele>
        <time>2025-10-16T07:47:57Z</time>
      </trkpt>
      <trkpt lat="47.65430549" lon="2.17315258">
        <ele>194.18</ele>
        <time>2025-10-16T07:48:05Z</time>
      </trkpt>
      <trkpt lat="47.65437911" lon="2.17303915">
        <ele>193.48</ele>
        <time>2025-10-16T07:48:14Z</time>
      </trkpt>
      <trkpt lat="47.65444508" lon="2.17294418">
        <ele>192.91</ele>
        <time>2025-10-16T07:48:22Z</time>
      </trkpt>
      <trkpt lat="47.65452539" lon="2.17287368">
        <ele>192.97</ele>
        <time>2025-10-16T07:48:30Z</time>
      </trkpt>
      <trkpt lat="47.6546056" lon="2.17280927">
        <ele>192.26</ele>
        <time>2025-10-16T07:48:38Z</time>
      </trkpt>
      <trkpt lat="47.65468911" lon="2.17273997">
        <ele>191</ele>
        <time>2025-10-16T07:48:46Z</time>
      </trkpt>
      <trkpt lat="47.65476436" lon="2.17265499">
        <ele>189.9</ele>
        <time>2025-10-16T07:48:54Z</time>
      </trkpt>
      <trkpt lat="47.6548402" lon="2.17257903">
        <ele>188.87</ele>
        <time>2025-10-16T07:49:02Z</time>
      </trkpt>
      <trkpt lat="47.65491507" lon="2.17248804">
        <ele>189.77</ele>
        <time>2025-10-16T07:49:10Z</time>
      </trkpt>
      <trkpt lat="47.65498589" lon="2.17238867">
        <ele>190.15</ele>
        <time>2025-10-16T07:49:18Z</time>
      </trkpt>
      <trkpt lat="47.65505527" lon="2.17229006">
        <ele>191.89</ele>
        <time>2025-10-16T07:49:26Z</time>
      </trkpt>
      <trkpt lat="47.65510755" lon="2.17216959">
        <ele>193.7</ele>
        <time>2025-10-16T07:49:34Z</time>
      </trkpt>
      <trkpt lat="47.65517081" lon="2.1720512">
        <ele>193.99</ele>
        <time>2025-10-16T07:49:43Z</time>
      </trkpt>
      <trkpt lat="47.65523118" lon="2.17194143">
        <ele>194.54</ele>
        <time>2025-10-16T07:49:51Z</time>
      </trkpt>
      <trkpt lat="47.65527705" lon="2.17182429">
        <ele>194.88</ele>
        <time>2025-10-16T07:49:59Z</time>
      </trkpt>
      <trkpt lat="47.65533533" lon="2.17168425">
        <ele>195.34</ele>
        <time>2025-10-16T07:50:09Z</time>
      </trkpt>
      <trkpt lat="47.65538952" lon="2.17155821">
        <ele>195.28</ele>
        <time>2025-10-16T07:50:18Z</time>
      </trkpt>
      <trkpt lat="47.65543663" lon="2.17144148">
        <ele>194.69</ele>
        <time>2025-10-16T07:50:26Z</time>
      </trkpt>
      <trkpt lat="47.65549016" lon="2.17132876">
        <ele>194.55</ele>
        <time>2025-10-16T07:50:34Z</time>
      </trkpt>
      <trkpt lat="47.65554349" lon="2.1712186">
        <ele>193.54</ele>
        <time>2025-10-16T07:50:42Z</time>
      </trkpt>
      <trkpt lat="47.65559164" lon="2.1710974">
        <ele>193.89</ele>
        <time>2025-10-16T07:50:50Z</time>
      </trkpt>
      <trkpt lat="47.65565111" lon="2.17097636">
        <ele>193.86</ele>
        <time>2025-10-16T07:50:59Z</time>
      </trkpt>
      <trkpt lat="47.65570548" lon="2.17086446">
        <ele>194.42</ele>
        <time>2025-10-16T07:51:07Z</time>
      </trkpt>
      <trkpt lat="47.65576871" lon="2.17075175">
        <ele>193.57</ele>
        <time>2025-10-16T07:51:16Z</time>
      </trkpt>
      <trkpt lat="47.65582969" lon="2.17063559">
        <ele>193.39</ele>
        <time>2025-10-16T07:51:25Z</time>
      </trkpt>
      <trkpt lat="47.65589492" lon="2.17052309">
        <ele>193.87</ele>
        <time>2025-10-16T07:51:34Z</time>
      </trkpt>
      <trkpt lat="47.65596336" lon="2.1704333">
        <ele>193.65</ele>
        <time>2025-10-16T07:51:42Z</time>
      </trkpt>
      <trkpt lat="47.65605385" lon="2.17038365">
        <ele>195.79</ele>
        <time>2025-10-16T07:51:50Z</time>
      </trkpt>
      <trkpt lat="47.65614481" lon="2.17038033">
        <ele>197.41</ele>
        <time>2025-10-16T07:51:59Z</time>
      </trkpt>
      <trkpt lat="47.65623516" lon="2.17040223">
        <ele>198.46</ele>
        <time>2025-10-16T07:52:07Z</time>
      </trkpt>
      <trkpt lat="47.6563282" lon="2.17044052">
        <ele>199.5</ele>
        <time>2025-10-16T07:52:15Z</time>
      </trkpt>
      <trkpt lat="47.65642776" lon="2.17047882">
        <ele>201.28</ele>
        <time>2025-10-16T07:52:24Z</time>
      </trkpt>
      <trkpt lat="47.65652113" lon="2.17050929">
        <ele>203.01</ele>
        <time>2025-10-16T07:52:32Z</time>
      </trkpt>
      <trkpt lat="47.65661757" lon="2.17053868">
        <ele>204.36</ele>
        <time>2025-10-16T07:52:41Z</time>
      </trkpt>
      <trkpt lat="47.6567121" lon="2.17056816">
        <ele>204.31</ele>
        <time>2025-10-16T07:52:50Z</time>
      </trkpt>
      <trkpt lat="47.65680207" lon="2.17059047">
        <ele>205.23</ele>
        <time>2025-10-16T07:52:58Z</time>
      </trkpt>
      <trkpt lat="47.65689134" lon="2.17061787">
        <ele>205.8</ele>
        <time>2025-10-16T07:53:06Z</time>
      </trkpt>
      <trkpt lat="47.65698856" lon="2.17064143">
        <ele>206.78</ele>
        <time>2025-10-16T07:53:15Z</time>
      </trkpt>
      <trkpt lat="47.65707865" lon="2.17066622">
        <ele>207.01</ele>
        <time>2025-10-16T07:53:23Z</time>
      </trkpt>
      <trkpt lat="47.65718382" lon="2.1706986">
        <ele>206.65</ele>
        <time>2025-10-16T07:53:32Z</time>
      </trkpt>
      <trkpt lat="47.65727865" lon="2.17072208">
        <ele>207.43</ele>
        <time>2025-10-16T07:53:40Z</time>
      </trkpt>
      <trkpt lat="47.65737703" lon="2.17074427">
        <ele>207.44</ele>
        <time>2025-10-16T07:53:49Z</time>
      </trkpt>
      <trkpt lat="47.65746675" lon="2.17076842">
        <ele>208.43</ele>
        <time>2025-10-16T07:53:57Z</time>
      </trkpt>
      <trkpt lat="47.65755672" lon="2.17079269">
        <ele>208.23</ele>
        <time>2025-10-16T07:54:05Z</time>
      </trkpt>
      <trkpt lat="47.65764511" lon="2.1708192">
        <ele>208.59</ele>
        <time>2025-10-16T07:54:13Z</time>
      </trkpt>
      <trkpt lat="47.65774954" lon="2.17084849">
        <ele>207.55</ele>
        <time>2025-10-16T07:54:23Z</time>
      </trkpt>
      <trkpt lat="47.65784458" lon="2.17086725">
        <ele>207.32</ele>
        <time>2025-10-16T07:54:32Z</time>
      </trkpt>
      <trkpt lat="47.65794431" lon="2.17086492">
        <ele>206.49</ele>
        <time>2025-10-16T07:54:41Z</time>
      </trkpt>
      <trkpt lat="47.65801485" lon="2.17078032">
        <ele>205.67</ele>
        <time>2025-10-16T07:54:50Z</time>
      </trkpt>
      <trkpt lat="47.658113" lon="2.17081178">
        <ele>201.29</ele>
        <time>2025-10-16T07:55:12Z</time>
      </trkpt>
      <trkpt lat="47.65821175" lon="2.17078328">
        <ele>200.67</ele>
        <time>2025-10-16T07:55:20Z</time>
      </trkpt>
      <trkpt lat="47.65830601" lon="2.17077082">
        <ele>200.79</ele>
        <time>2025-10-16T07:55:28Z</time>
      </trkpt>
      <trkpt lat="47.65839548" lon="2.17073385">
        <ele>199.03</ele>
        <time>2025-10-16T07:55:36Z</time>
      </trkpt>
      <trkpt lat="47.65849666" lon="2.17071187">
        <ele>199.79</ele>
        <time>2025-10-16T07:55:44Z</time>
      </trkpt>
      <trkpt lat="47.65859749" lon="2.17069441">
        <ele>200.6</ele>
        <time>2025-10-16T07:55:52Z</time>
      </trkpt>
      <trkpt lat="47.65868868" lon="2.17068006">
        <ele>200.98</ele>
        <time>2025-10-16T07:55:59Z</time>
      </trkpt>
      <trkpt lat="47.65878098" lon="2.17066554">
        <ele>200.62</ele>
        <time>2025-10-16T07:56:06Z</time>
      </trkpt>
      <trkpt lat="47.65888129" lon="2.17064967">
        <ele>200.33</ele>
        <time>2025-10-16T07:56:14Z</time>
      </trkpt>
      <trkpt lat="47.65898139" lon="2.17063522">
        <ele>199.61</ele>
        <time>2025-10-16T07:56:22Z</time>
      </trkpt>
      <trkpt lat="47.65907089" lon="2.1706209">
        <ele>198.76</ele>
        <time>2025-10-16T07:56:29Z</time>
      </trkpt>
      <trkpt lat="47.65916422" lon="2.17060642">
        <ele>198.12</ele>
        <time>2025-10-16T07:56:37Z</time>
      </trkpt>
      <trkpt lat="47.65926513" lon="2.17060411">
        <ele>199.5</ele>
        <time>2025-10-16T07:56:46Z</time>
      </trkpt>
      <trkpt lat="47.6593606" lon="2.17058546">
        <ele>198.5</ele>
        <time>2025-10-16T07:56:54Z</time>
      </trkpt>
      <trkpt lat="47.65945384" lon="2.17056631">
        <ele>198.32</ele>
        <time>2025-10-16T07:57:02Z</time>
      </trkpt>
      <trkpt lat="47.65955258" lon="2.17055164">
        <ele>197.2</ele>
        <time>2025-10-16T07:57:10Z</time>
      </trkpt>
      <trkpt lat="47.65964508" lon="2.17053285">
        <ele>196.74</ele>
        <time>2025-10-16T07:57:18Z</time>
      </trkpt>
      <trkpt lat="47.65974003" lon="2.17051745">
        <ele>196.92</ele>
        <time>2025-10-16T07:57:26Z</time>
      </trkpt>
      <trkpt lat="47.65983395" lon="2.17050111">
        <ele>197.07</ele>
        <time>2025-10-16T07:57:34Z</time>
      </trkpt>
      <trkpt lat="47.65992846" lon="2.17048514">
        <ele>196.9</ele>
        <time>2025-10-16T07:57:42Z</time>
      </trkpt>
      <trkpt lat="47.66002634" lon="2.17046871">
        <ele>195.42</ele>
        <time>2025-10-16T07:57:51Z</time>
      </trkpt>
      <trkpt lat="47.66011589" lon="2.17044411">
        <ele>193.47</ele>
        <time>2025-10-16T07:58:00Z</time>
      </trkpt>
      <trkpt lat="47.66021361" lon="2.17042992">
        <ele>193.64</ele>
        <time>2025-10-16T07:58:09Z</time>
      </trkpt>
      <trkpt lat="47.660312" lon="2.17040881">
        <ele>193.7</ele>
        <time>2025-10-16T07:58:18Z</time>
      </trkpt>
      <trkpt lat="47.66040881" lon="2.17039449">
        <ele>192.22</ele>
        <time>2025-10-16T07:58:27Z</time>
      </trkpt>
      <trkpt lat="47.66050438" lon="2.17037725">
        <ele>191.1</ele>
        <time>2025-10-16T07:58:36Z</time>
      </trkpt>
      <trkpt lat="47.66060211" lon="2.17036024">
        <ele>190.03</ele>
        <time>2025-10-16T07:58:45Z</time>
      </trkpt>
      <trkpt lat="47.66069676" lon="2.17034402">
        <ele>188.82</ele>
        <time>2025-10-16T07:58:53Z</time>
      </trkpt>
      <trkpt lat="47.66079117" lon="2.17032182">
        <ele>190.3</ele>
        <time>2025-10-16T07:59:01Z</time>
      </trkpt>
      <trkpt lat="47.66088078" lon="2.17030644">
        <ele>190.03</ele>
        <time>2025-10-16T07:59:08Z</time>
      </trkpt>
      <trkpt lat="47.66096452" lon="2.17025172">
        <ele>191.46</ele>
        <time>2025-10-16T07:59:21Z</time>
      </trkpt>
      <trkpt lat="47.66106421" lon="2.17028993">
        <ele>200.03</ele>
        <time>2025-10-16T08:00:33Z</time>
      </trkpt>
      <trkpt lat="47.66115389" lon="2.17030254">
        <ele>198.35</ele>
        <time>2025-10-16T08:00:40Z</time>
      </trkpt>
      <trkpt lat="47.66130329" lon="2.17031379">
        <ele>196.91</ele>
        <time>2025-10-16T08:01:01Z</time>
      </trkpt>
      <trkpt lat="47.66140716" lon="2.1702788">
        <ele>198.03</ele>
        <time>2025-10-16T08:01:07Z</time>
      </trkpt>
      <trkpt lat="47.66149896" lon="2.1702319">
        <ele>199.09</ele>
        <time>2025-10-16T08:01:14Z</time>
      </trkpt>
      <trkpt lat="47.66159075" lon="2.17027167">
        <ele>195.54</ele>
        <time>2025-10-16T08:01:20Z</time>
      </trkpt>
      <trkpt lat="47.66169169" lon="2.17027707">
        <ele>195.03</ele>
        <time>2025-10-16T08:01:28Z</time>
      </trkpt>
      <trkpt lat="47.66178854" lon="2.17026328">
        <ele>193</ele>
        <time>2025-10-16T08:01:36Z</time>
      </trkpt>
      <trkpt lat="47.66187232" lon="2.17019067">
        <ele>191.59</ele>
        <time>2025-10-16T08:01:52Z</time>
      </trkpt>
      <trkpt lat="47.66196402" lon="2.17016578">
        <ele>192.5</ele>
        <time>2025-10-16T08:02:01Z</time>
      </trkpt>
      <trkpt lat="47.66205239" lon="2.1701342">
        <ele>191.1</ele>
        <time>2025-10-16T08:02:21Z</time>
      </trkpt>
      <trkpt lat="47.66214092" lon="2.17010246">
        <ele>191.2</ele>
        <time>2025-10-16T08:02:40Z</time>
      </trkpt>
      <trkpt lat="47.66223562" lon="2.17009431">
        <ele>185.98</ele>
        <time>2025-10-16T08:03:06Z</time>
      </trkpt>
      <trkpt lat="47.66231538" lon="2.1701073">
        <ele>189.3</ele>
        <time>2025-10-16T08:06:49Z</time>
      </trkpt>
      <trkpt lat="47.66231741" lon="2.17010772">
        <ele>189.96</ele>
        <time>2025-10-16T08:08:50Z</time>
      </trkpt>
      <trkpt lat="47.66231996" lon="2.17010764">
        <ele>190.91</ele>
        <time>2025-10-16T08:10:51Z</time>
      </trkpt>
      <trkpt lat="47.66240437" lon="2.17005789">
        <ele>195.34</ele>
        <time>2025-10-16T08:12:43Z</time>
      </trkpt>
      <trkpt lat="47.66239413" lon="2.16992096">
        <ele>193.27</ele>
        <time>2025-10-16T08:14:32Z</time>
      </trkpt>
      <trkpt lat="47.66239772" lon="2.16977502">
        <ele>194.66</ele>
        <time>2025-10-16T08:14:43Z</time>
      </trkpt>
      <trkpt lat="47.66240079" lon="2.16963959">
        <ele>192.87</ele>
        <time>2025-10-16T08:14:52Z</time>
      </trkpt>
      <trkpt lat="47.66241251" lon="2.16949146">
        <ele>191.59</ele>
        <time>2025-10-16T08:15:00Z</time>
      </trkpt>
      <trkpt lat="47.66243981" lon="2.16935418">
        <ele>190.1</ele>
        <time>2025-10-16T08:15:10Z</time>
      </trkpt>
      <trkpt lat="47.66245277" lon="2.16921245">
        <ele>190.81</ele>
        <time>2025-10-16T08:15:18Z</time>
      </trkpt>
      <trkpt lat="47.66246517" lon="2.1690651">
        <ele>191.27</ele>
        <time>2025-10-16T08:15:26Z</time>
      </trkpt>
      <trkpt lat="47.66247994" lon="2.16891501">
        <ele>192.79</ele>
        <time>2025-10-16T08:15:34Z</time>
      </trkpt>
      <trkpt lat="47.66249749" lon="2.16876651">
        <ele>193.98</ele>
        <time>2025-10-16T08:15:42Z</time>
      </trkpt>
      <trkpt lat="47.6625109" lon="2.16863475">
        <ele>193.93</ele>
        <time>2025-10-16T08:15:50Z</time>
      </trkpt>
      <trkpt lat="47.66252912" lon="2.16850271">
        <ele>192.66</ele>
        <time>2025-10-16T08:15:58Z</time>
      </trkpt>
      <trkpt lat="47.66254225" lon="2.16835365">
        <ele>194.35</ele>
        <time>2025-10-16T08:16:06Z</time>
      </trkpt>
      <trkpt lat="47.66255198" lon="2.16821637">
        <ele>193.6</ele>
        <time>2025-10-16T08:16:14Z</time>
      </trkpt>
      <trkpt lat="47.66255667" lon="2.16808297">
        <ele>198</ele>
        <time>2025-10-16T08:16:20Z</time>
      </trkpt>
      <trkpt lat="47.66256771" lon="2.16793601">
        <ele>197.38</ele>
        <time>2025-10-16T08:16:28Z</time>
      </trkpt>
      <trkpt lat="47.66258621" lon="2.16778935">
        <ele>197.4</ele>
        <time>2025-10-16T08:16:36Z</time>
      </trkpt>
      <trkpt lat="47.66260155" lon="2.16764984">
        <ele>196.48</ele>
        <time>2025-10-16T08:16:44Z</time>
      </trkpt>
      <trkpt lat="47.66261829" lon="2.1675085">
        <ele>196.38</ele>
        <time>2025-10-16T08:16:52Z</time>
      </trkpt>
      <trkpt lat="47.66263746" lon="2.16736507">
        <ele>196.51</ele>
        <time>2025-10-16T08:17:00Z</time>
      </trkpt>
      <trkpt lat="47.66265313" lon="2.16722681">
        <ele>196.35</ele>
        <time>2025-10-16T08:17:08Z</time>
      </trkpt>
      <trkpt lat="47.66266674" lon="2.16708486">
        <ele>195.8</ele>
        <time>2025-10-16T08:17:16Z</time>
      </trkpt>
      <trkpt lat="47.66268139" lon="2.16695317">
        <ele>195.1</ele>
        <time>2025-10-16T08:17:23Z</time>
      </trkpt>
      <trkpt lat="47.66270117" lon="2.16682298">
        <ele>195.1</ele>
        <time>2025-10-16T08:17:30Z</time>
      </trkpt>
      <trkpt lat="47.66271362" lon="2.16667717">
        <ele>194.46</ele>
        <time>2025-10-16T08:17:38Z</time>
      </trkpt>
      <trkpt lat="47.66273279" lon="2.16653864">
        <ele>195.11</ele>
        <time>2025-10-16T08:17:46Z</time>
      </trkpt>
      <trkpt lat="47.66274612" lon="2.16639082">
        <ele>194.81</ele>
        <time>2025-10-16T08:17:54Z</time>
      </trkpt>
      <trkpt lat="47.66276165" lon="2.16625442">
        <ele>195.45</ele>
        <time>2025-10-16T08:18:01Z</time>
      </trkpt>
      <trkpt lat="47.6627774" lon="2.1661174">
        <ele>195.64</ele>
        <time>2025-10-16T08:18:08Z</time>
      </trkpt>
      <trkpt lat="47.66279556" lon="2.16597147">
        <ele>195.08</ele>
        <time>2025-10-16T08:18:16Z</time>
      </trkpt>
      <trkpt lat="47.66281241" lon="2.1658402">
        <ele>195.53</ele>
        <time>2025-10-16T08:18:23Z</time>
      </trkpt>
      <trkpt lat="47.66282998" lon="2.16570225">
        <ele>193.15</ele>
        <time>2025-10-16T08:18:32Z</time>
      </trkpt>
      <trkpt lat="47.6628487" lon="2.16556438">
        <ele>193.46</ele>
        <time>2025-10-16T08:18:40Z</time>
      </trkpt>
      <trkpt lat="47.66286729" lon="2.16542209">
        <ele>194.58</ele>
        <time>2025-10-16T08:18:48Z</time>
      </trkpt>
      <trkpt lat="47.66288342" lon="2.16527773">
        <ele>193.69</ele>
        <time>2025-10-16T08:18:56Z</time>
      </trkpt>
      <trkpt lat="47.66289806" lon="2.16513458">
        <ele>192.85</ele>
        <time>2025-10-16T08:19:04Z</time>
      </trkpt>
      <trkpt lat="47.66291096" lon="2.16498942">
        <ele>193.2</ele>
        <time>2025-10-16T08:19:12Z</time>
      </trkpt>
      <trkpt lat="47.66292846" lon="2.16484639">
        <ele>192.9</ele>
        <time>2025-10-16T08:19:20Z</time>
      </trkpt>
      <trkpt lat="47.66294248" lon="2.16471078">
        <ele>193.63</ele>
        <time>2025-10-16T08:19:28Z</time>
      </trkpt>
      <trkpt lat="47.66295595" lon="2.16457488">
        <ele>193.4</ele>
        <time>2025-10-16T08:19:36Z</time>
      </trkpt>
      <trkpt lat="47.66297217" lon="2.16443191">
        <ele>193.03</ele>
        <time>2025-10-16T08:19:44Z</time>
      </trkpt>
      <trkpt lat="47.66298736" lon="2.16428449">
        <ele>192.45</ele>
        <time>2025-10-16T08:19:52Z</time>
      </trkpt>
      <trkpt lat="47.66299953" lon="2.16414618">
        <ele>192.57</ele>
        <time>2025-10-16T08:19:59Z</time>
      </trkpt>
      <trkpt lat="47.66301409" lon="2.16399819">
        <ele>192.18</ele>
        <time>2025-10-16T08:20:07Z</time>
      </trkpt>
      <trkpt lat="47.66303161" lon="2.1638602">
        <ele>193.87</ele>
        <time>2025-10-16T08:20:15Z</time>
      </trkpt>
      <trkpt lat="47.66305109" lon="2.16372899">
        <ele>195.23</ele>
        <time>2025-10-16T08:22:09Z</time>
      </trkpt>
      <trkpt lat="47.66305219" lon="2.16359494">
        <ele>194.76</ele>
        <time>2025-10-16T08:22:18Z</time>
      </trkpt>
      <trkpt lat="47.66306241" lon="2.16345756">
        <ele>193.73</ele>
        <time>2025-10-16T08:22:27Z</time>
      </trkpt>
      <trkpt lat="47.66309611" lon="2.16333031">
        <ele>194.7</ele>
        <time>2025-10-16T08:22:35Z</time>
      </trkpt>
      <trkpt lat="47.66312888" lon="2.16320147">
        <ele>194.72</ele>
        <time>2025-10-16T08:22:43Z</time>
      </trkpt>
      <trkpt lat="47.6631749" lon="2.16307296">
        <ele>194.09</ele>
        <time>2025-10-16T08:22:52Z</time>
      </trkpt>
      <trkpt lat="47.66322364" lon="2.16295034">
        <ele>194.32</ele>
        <time>2025-10-16T08:23:01Z</time>
      </trkpt>
      <trkpt lat="47.66325991" lon="2.16281123">
        <ele>195.02</ele>
        <time>2025-10-16T08:23:10Z</time>
      </trkpt>
      <trkpt lat="47.66330187" lon="2.16269302">
        <ele>195.62</ele>
        <time>2025-10-16T08:23:18Z</time>
      </trkpt>
      <trkpt lat="47.66334827" lon="2.16257732">
        <ele>194.57</ele>
        <time>2025-10-16T08:23:26Z</time>
      </trkpt>
      <trkpt lat="47.66339388" lon="2.16244612">
        <ele>194.22</ele>
        <time>2025-10-16T08:23:34Z</time>
      </trkpt>
      <trkpt lat="47.66344136" lon="2.16232615">
        <ele>193.33</ele>
        <time>2025-10-16T08:23:42Z</time>
      </trkpt>
      <trkpt lat="47.66346725" lon="2.16219352">
        <ele>191.74</ele>
        <time>2025-10-16T08:23:50Z</time>
      </trkpt>
      <trkpt lat="47.66349689" lon="2.16205914">
        <ele>192.11</ele>
        <time>2025-10-16T08:23:58Z</time>
      </trkpt>
      <trkpt lat="47.66351162" lon="2.16191354">
        <ele>192.19</ele>
        <time>2025-10-16T08:24:06Z</time>
      </trkpt>
      <trkpt lat="47.66352756" lon="2.16177233">
        <ele>191.94</ele>
        <time>2025-10-16T08:24:14Z</time>
      </trkpt>
      <trkpt lat="47.66352962" lon="2.16163029">
        <ele>192.6</ele>
        <time>2025-10-16T08:24:22Z</time>
      </trkpt>
      <trkpt lat="47.66351503" lon="2.16149803">
        <ele>190.78</ele>
        <time>2025-10-16T08:24:30Z</time>
      </trkpt>
      <trkpt lat="47.6634935" lon="2.16136691">
        <ele>191.44</ele>
        <time>2025-10-16T08:24:38Z</time>
      </trkpt>
      <trkpt lat="47.66346112" lon="2.16123256">
        <ele>192.85</ele>
        <time>2025-10-16T08:24:46Z</time>
      </trkpt>
      <trkpt lat="47.66342643" lon="2.16109982">
        <ele>193.68</ele>
        <time>2025-10-16T08:24:54Z</time>
      </trkpt>
      <trkpt lat="47.66337221" lon="2.16098279">
        <ele>194</ele>
        <time>2025-10-16T08:25:02Z</time>
      </trkpt>
      <trkpt lat="47.66326309" lon="2.16073246">
        <ele>191.56</ele>
        <time>2025-10-16T08:25:18Z</time>
      </trkpt>
      <trkpt lat="47.66320953" lon="2.16061901">
        <ele>190.43</ele>
        <time>2025-10-16T08:25:26Z</time>
      </trkpt>
      <trkpt lat="47.66314988" lon="2.16050906">
        <ele>188.92</ele>
        <time>2025-10-16T08:25:34Z</time>
      </trkpt>
      <trkpt lat="47.66309095" lon="2.16040129">
        <ele>186.42</ele>
        <time>2025-10-16T08:25:43Z</time>
      </trkpt>
      <trkpt lat="47.66304007" lon="2.16028329">
        <ele>188.43</ele>
        <time>2025-10-16T08:25:50Z</time>
      </trkpt>
      <trkpt lat="47.66299087" lon="2.16016922">
        <ele>187.34</ele>
        <time>2025-10-16T08:25:58Z</time>
      </trkpt>
      <trkpt lat="47.66294228" lon="2.16004722">
        <ele>186.71</ele>
        <time>2025-10-16T08:26:06Z</time>
      </trkpt>
      <trkpt lat="47.66289204" lon="2.1599215">
        <ele>187.57</ele>
        <time>2025-10-16T08:26:14Z</time>
      </trkpt>
      <trkpt lat="47.66284255" lon="2.15979457">
        <ele>187.86</ele>
        <time>2025-10-16T08:26:22Z</time>
      </trkpt>
      <trkpt lat="47.66279904" lon="2.15967789">
        <ele>190.5</ele>
        <time>2025-10-16T08:26:30Z</time>
      </trkpt>
      <trkpt lat="47.66274778" lon="2.1595681">
        <ele>191.4</ele>
        <time>2025-10-16T08:26:38Z</time>
      </trkpt>
      <trkpt lat="47.6627095" lon="2.15944299">
        <ele>192</ele>
        <time>2025-10-16T08:26:46Z</time>
      </trkpt>
      <trkpt lat="47.66267054" lon="2.15931199">
        <ele>193.68</ele>
        <time>2025-10-16T08:26:55Z</time>
      </trkpt>
      <trkpt lat="47.66264531" lon="2.15917913">
        <ele>193.99</ele>
        <time>2025-10-16T08:27:03Z</time>
      </trkpt>
      <trkpt lat="47.66260975" lon="2.15905638">
        <ele>193.75</ele>
        <time>2025-10-16T08:27:11Z</time>
      </trkpt>
      <trkpt lat="47.66257342" lon="2.15892346">
        <ele>193.39</ele>
        <time>2025-10-16T08:27:19Z</time>
      </trkpt>
      <trkpt lat="47.66254017" lon="2.15878761">
        <ele>192.45</ele>
        <time>2025-10-16T08:27:27Z</time>
      </trkpt>
      <trkpt lat="47.66250505" lon="2.1586477">
        <ele>194.08</ele>
        <time>2025-10-16T08:27:35Z</time>
      </trkpt>
      <trkpt lat="47.66247403" lon="2.15851184">
        <ele>194.6</ele>
        <time>2025-10-16T08:27:43Z</time>
      </trkpt>
      <trkpt lat="47.66244807" lon="2.158381">
        <ele>193.28</ele>
        <time>2025-10-16T08:27:51Z</time>
      </trkpt>
      <trkpt lat="47.66242187" lon="2.15824165">
        <ele>193.7</ele>
        <time>2025-10-16T08:27:59Z</time>
      </trkpt>
      <trkpt lat="47.66240061" lon="2.15811012">
        <ele>193.9</ele>
        <time>2025-10-16T08:28:06Z</time>
      </trkpt>
      <trkpt lat="47.66237676" lon="2.1579802">
        <ele>193.63</ele>
        <time>2025-10-16T08:28:14Z</time>
      </trkpt>
      <trkpt lat="47.66234447" lon="2.15783597">
        <ele>195.61</ele>
        <time>2025-10-16T08:28:23Z</time>
      </trkpt>
      <trkpt lat="47.66231333" lon="2.15769886">
        <ele>194.54</ele>
        <time>2025-10-16T08:28:31Z</time>
      </trkpt>
      <trkpt lat="47.6622956" lon="2.15755226">
        <ele>196.45</ele>
        <time>2025-10-16T08:28:40Z</time>
      </trkpt>
      <trkpt lat="47.66227126" lon="2.1574146">
        <ele>197.45</ele>
        <time>2025-10-16T08:28:47Z</time>
      </trkpt>
      <trkpt lat="47.66225056" lon="2.15727869">
        <ele>195.72</ele>
        <time>2025-10-16T08:28:55Z</time>
      </trkpt>
      <trkpt lat="47.66223712" lon="2.15713315">
        <ele>196.26</ele>
        <time>2025-10-16T08:29:04Z</time>
      </trkpt>
      <trkpt lat="47.66220532" lon="2.15699779">
        <ele>194.61</ele>
        <time>2025-10-16T08:29:13Z</time>
      </trkpt>
      <trkpt lat="47.66218503" lon="2.15686452">
        <ele>194.32</ele>
        <time>2025-10-16T08:29:21Z</time>
      </trkpt>
      <trkpt lat="47.66217956" lon="2.1567245">
        <ele>194.59</ele>
        <time>2025-10-16T08:29:29Z</time>
      </trkpt>
      <trkpt lat="47.66218116" lon="2.15658604">
        <ele>194.24</ele>
        <time>2025-10-16T08:29:37Z</time>
      </trkpt>
      <trkpt lat="47.66219264" lon="2.15643994">
        <ele>194.23</ele>
        <time>2025-10-16T08:29:45Z</time>
      </trkpt>
      <trkpt lat="47.66221233" lon="2.15630089">
        <ele>193.84</ele>
        <time>2025-10-16T08:29:53Z</time>
      </trkpt>
      <trkpt lat="47.66223756" lon="2.1561639">
        <ele>194.11</ele>
        <time>2025-10-16T08:30:01Z</time>
      </trkpt>
      <trkpt lat="47.66225613" lon="2.156028">
        <ele>193.65</ele>
        <time>2025-10-16T08:30:09Z</time>
      </trkpt>
      <trkpt lat="47.66227517" lon="2.15589021">
        <ele>193.39</ele>
        <time>2025-10-16T08:30:17Z</time>
      </trkpt>
      <trkpt lat="47.66228372" lon="2.15575137">
        <ele>191.73</ele>
        <time>2025-10-16T08:30:25Z</time>
      </trkpt>
      <trkpt lat="47.66228587" lon="2.15561338">
        <ele>192.64</ele>
        <time>2025-10-16T08:30:33Z</time>
      </trkpt>
      <trkpt lat="47.66228124" lon="2.15546536">
        <ele>191.92</ele>
        <time>2025-10-16T08:30:42Z</time>
      </trkpt>
      <trkpt lat="47.66227734" lon="2.15530449">
        <ele>193.26</ele>
        <time>2025-10-16T08:30:51Z</time>
      </trkpt>
      <trkpt lat="47.66226606" lon="2.15516555">
        <ele>193.68</ele>
        <time>2025-10-16T08:30:59Z</time>
      </trkpt>
      <trkpt lat="47.66226185" lon="2.15503144">
        <ele>193.09</ele>
        <time>2025-10-16T08:31:08Z</time>
      </trkpt>
      <trkpt lat="47.66225928" lon="2.15489032">
        <ele>193.35</ele>
        <time>2025-10-16T08:31:16Z</time>
      </trkpt>
      <trkpt lat="47.6622696" lon="2.15475408">
        <ele>195.1</ele>
        <time>2025-10-16T08:31:25Z</time>
      </trkpt>
      <trkpt lat="47.66226689" lon="2.15461689">
        <ele>194.62</ele>
        <time>2025-10-16T08:32:07Z</time>
      </trkpt>
      <trkpt lat="47.66223906" lon="2.15448554">
        <ele>194.32</ele>
        <time>2025-10-16T08:32:16Z</time>
      </trkpt>
      <trkpt lat="47.66220393" lon="2.15435703">
        <ele>192.74</ele>
        <time>2025-10-16T08:32:26Z</time>
      </trkpt>
      <trkpt lat="47.66217605" lon="2.15422226">
        <ele>192.87</ele>
        <time>2025-10-16T08:32:35Z</time>
      </trkpt>
      <trkpt lat="47.66216201" lon="2.154078">
        <ele>192.97</ele>
        <time>2025-10-16T08:32:44Z</time>
      </trkpt>
      <trkpt lat="47.66215004" lon="2.15393072">
        <ele>193.05</ele>
        <time>2025-10-16T08:32:53Z</time>
      </trkpt>
      <trkpt lat="47.66213222" lon="2.15378616">
        <ele>193.15</ele>
        <time>2025-10-16T08:33:02Z</time>
      </trkpt>
      <trkpt lat="47.6621089" lon="2.15365039">
        <ele>192.2</ele>
        <time>2025-10-16T08:33:11Z</time>
      </trkpt>
      <trkpt lat="47.66209401" lon="2.15351832">
        <ele>192.31</ele>
        <time>2025-10-16T08:33:19Z</time>
      </trkpt>
      <trkpt lat="47.66207895" lon="2.15337997">
        <ele>195.8</ele>
        <time>2025-10-16T08:33:27Z</time>
      </trkpt>
      <trkpt lat="47.66205804" lon="2.15324107">
        <ele>194.43</ele>
        <time>2025-10-16T08:33:36Z</time>
      </trkpt>
      <trkpt lat="47.66202971" lon="2.15310364">
        <ele>195.73</ele>
        <time>2025-10-16T08:33:45Z</time>
      </trkpt>
      <trkpt lat="47.66201106" lon="2.15297076">
        <ele>197.5</ele>
        <time>2025-10-16T08:33:54Z</time>
      </trkpt>
      <trkpt lat="47.66199533" lon="2.1528382">
        <ele>197.5</ele>
        <time>2025-10-16T08:34:02Z</time>
      </trkpt>
      <trkpt lat="47.66197824" lon="2.15269534">
        <ele>199.62</ele>
        <time>2025-10-16T08:34:12Z</time>
      </trkpt>
      <trkpt lat="47.66194922" lon="2.15255458">
        <ele>197.76</ele>
        <time>2025-10-16T08:34:22Z</time>
      </trkpt>
      <trkpt lat="47.66192017" lon="2.15242665">
        <ele>196.61</ele>
        <time>2025-10-16T08:34:31Z</time>
      </trkpt>
      <trkpt lat="47.66190155" lon="2.1522889">
        <ele>196.19</ele>
        <time>2025-10-16T08:34:40Z</time>
      </trkpt>
      <trkpt lat="47.66189048" lon="2.15214654">
        <ele>198.05</ele>
        <time>2025-10-16T08:34:49Z</time>
      </trkpt>
      <trkpt lat="47.66186514" lon="2.15200541">
        <ele>196.49</ele>
        <time>2025-10-16T08:34:58Z</time>
      </trkpt>
      <trkpt lat="47.66184542" lon="2.15187356">
        <ele>195.56</ele>
        <time>2025-10-16T08:35:07Z</time>
      </trkpt>
      <trkpt lat="47.66181798" lon="2.1517451">
        <ele>195.55</ele>
        <time>2025-10-16T08:35:16Z</time>
      </trkpt>
      <trkpt lat="47.66181127" lon="2.15160537">
        <ele>196.45</ele>
        <time>2025-10-16T08:35:25Z</time>
      </trkpt>
      <trkpt lat="47.66179318" lon="2.15146226">
        <ele>196.13</ele>
        <time>2025-10-16T08:35:35Z</time>
      </trkpt>
      <trkpt lat="47.66177948" lon="2.15131995">
        <ele>195.63</ele>
        <time>2025-10-16T08:35:45Z</time>
      </trkpt>
      <trkpt lat="47.66176713" lon="2.15118108">
        <ele>195.61</ele>
        <time>2025-10-16T08:35:54Z</time>
      </trkpt>
      <trkpt lat="47.6617532" lon="2.15103812">
        <ele>195.65</ele>
        <time>2025-10-16T08:36:03Z</time>
      </trkpt>
      <trkpt lat="47.66173556" lon="2.15089246">
        <ele>195.84</ele>
        <time>2025-10-16T08:36:13Z</time>
      </trkpt>
      <trkpt lat="47.66172311" lon="2.15075705">
        <ele>196.7</ele>
        <time>2025-10-16T08:36:21Z</time>
      </trkpt>
      <trkpt lat="47.66170653" lon="2.15061224">
        <ele>195.78</ele>
        <time>2025-10-16T08:36:30Z</time>
      </trkpt>
      <trkpt lat="47.66168884" lon="2.15046958">
        <ele>195.41</ele>
        <time>2025-10-16T08:36:39Z</time>
      </trkpt>
      <trkpt lat="47.66167141" lon="2.15033202">
        <ele>194.74</ele>
        <time>2025-10-16T08:36:48Z</time>
      </trkpt>
      <trkpt lat="47.66165968" lon="2.15018285">
        <ele>194.2</ele>
        <time>2025-10-16T08:36:57Z</time>
      </trkpt>
      <trkpt lat="47.66165224" lon="2.15004434">
        <ele>193.93</ele>
        <time>2025-10-16T08:37:05Z</time>
      </trkpt>
      <trkpt lat="47.66164152" lon="2.14990493">
        <ele>193.55</ele>
        <time>2025-10-16T08:37:13Z</time>
      </trkpt>
      <trkpt lat="47.66163443" lon="2.14976619">
        <ele>194.48</ele>
        <time>2025-10-16T08:37:21Z</time>
      </trkpt>
      <trkpt lat="47.66162784" lon="2.14963106">
        <ele>193.59</ele>
        <time>2025-10-16T08:37:29Z</time>
      </trkpt>
      <trkpt lat="47.66162164" lon="2.14949738">
        <ele>192.7</ele>
        <time>2025-10-16T08:37:37Z</time>
      </trkpt>
      <trkpt lat="47.66161859" lon="2.14935518">
        <ele>192.86</ele>
        <time>2025-10-16T08:37:45Z</time>
      </trkpt>
      <trkpt lat="47.6616087" lon="2.14920532">
        <ele>192.94</ele>
        <time>2025-10-16T08:37:54Z</time>
      </trkpt>
      <trkpt lat="47.66160226" lon="2.14907091">
        <ele>194.74</ele>
        <time>2025-10-16T08:38:02Z</time>
      </trkpt>
      <trkpt lat="47.66160053" lon="2.14893743">
        <ele>195.36</ele>
        <time>2025-10-16T08:38:10Z</time>
      </trkpt>
      <trkpt lat="47.66158684" lon="2.14880152">
        <ele>195.83</ele>
        <time>2025-10-16T08:38:19Z</time>
      </trkpt>
      <trkpt lat="47.66159328" lon="2.14866054">
        <ele>194.35</ele>
        <time>2025-10-16T08:38:27Z</time>
      </trkpt>
      <trkpt lat="47.6615891" lon="2.14852401">
        <ele>194.6</ele>
        <time>2025-10-16T08:38:35Z</time>
      </trkpt>
      <trkpt lat="47.66158757" lon="2.14838846">
        <ele>194.9</ele>
        <time>2025-10-16T08:38:43Z</time>
      </trkpt>
      <trkpt lat="47.66158841" lon="2.1482481">
        <ele>195.08</ele>
        <time>2025-10-16T08:38:51Z</time>
      </trkpt>
      <trkpt lat="47.6615888" lon="2.14810376">
        <ele>196.2</ele>
        <time>2025-10-16T08:38:59Z</time>
      </trkpt>
      <trkpt lat="47.66159442" lon="2.14795942">
        <ele>196.16</ele>
        <time>2025-10-16T08:39:07Z</time>
      </trkpt>
      <trkpt lat="47.66159699" lon="2.14781313">
        <ele>195.93</ele>
        <time>2025-10-16T08:39:16Z</time>
      </trkpt>
      <trkpt lat="47.66159963" lon="2.14767787">
        <ele>194.79</ele>
        <time>2025-10-16T08:39:24Z</time>
      </trkpt>
      <trkpt lat="47.66160544" lon="2.14753342">
        <ele>194.74</ele>
        <time>2025-10-16T08:39:33Z</time>
      </trkpt>
      <trkpt lat="47.66161417" lon="2.14739661">
        <ele>195.45</ele>
        <time>2025-10-16T08:39:42Z</time>
      </trkpt>
      <trkpt lat="47.66162305" lon="2.14725425">
        <ele>194.45</ele>
        <time>2025-10-16T08:39:51Z</time>
      </trkpt>
      <trkpt lat="47.66162938" lon="2.14711632">
        <ele>193.58</ele>
        <time>2025-10-16T08:40:00Z</time>
      </trkpt>
      <trkpt lat="47.66163322" lon="2.14697318">
        <ele>194.21</ele>
        <time>2025-10-16T08:40:09Z</time>
      </trkpt>
      <trkpt lat="47.66163667" lon="2.14682783">
        <ele>193.57</ele>
        <time>2025-10-16T08:40:18Z</time>
      </trkpt>
      <trkpt lat="47.66164164" lon="2.14669332">
        <ele>193.78</ele>
        <time>2025-10-16T08:40:26Z</time>
      </trkpt>
      <trkpt lat="47.66164759" lon="2.14655447">
        <ele>194.39</ele>
        <time>2025-10-16T08:40:34Z</time>
      </trkpt>
      <trkpt lat="47.66166022" lon="2.14642233">
        <ele>196.53</ele>
        <time>2025-10-16T08:41:02Z</time>
      </trkpt>
      <trkpt lat="47.66156584" lon="2.14640232">
        <ele>195.07</ele>
        <time>2025-10-16T08:41:33Z</time>
      </trkpt>
      <trkpt lat="47.6614536" lon="2.14643157">
        <ele>194.11</ele>
        <time>2025-10-16T08:41:44Z</time>
      </trkpt>
      <trkpt lat="47.66136366" lon="2.14646855">
        <ele>192.82</ele>
        <time>2025-10-16T08:41:53Z</time>
      </trkpt>
      <trkpt lat="47.66126922" lon="2.14649481">
        <ele>193.94</ele>
        <time>2025-10-16T08:42:03Z</time>
      </trkpt>
      <trkpt lat="47.66117648" lon="2.14651862">
        <ele>193.66</ele>
        <time>2025-10-16T08:42:10Z</time>
      </trkpt>
      <trkpt lat="47.66108955" lon="2.14656853">
        <ele>195.83</ele>
        <time>2025-10-16T08:42:18Z</time>
      </trkpt>
      <trkpt lat="47.66099942" lon="2.14661378">
        <ele>191.17</ele>
        <time>2025-10-16T08:42:27Z</time>
      </trkpt>
      <trkpt lat="47.6609012" lon="2.14661308">
        <ele>190.54</ele>
        <time>2025-10-16T08:42:36Z</time>
      </trkpt>
      <trkpt lat="47.66080804" lon="2.14662298">
        <ele>186.41</ele>
        <time>2025-10-16T08:42:45Z</time>
      </trkpt>
      <trkpt lat="47.66071168" lon="2.14662174">
        <ele>192.62</ele>
        <time>2025-10-16T08:42:54Z</time>
      </trkpt>
      <trkpt lat="47.66061636" lon="2.1466453">
        <ele>191.08</ele>
        <time>2025-10-16T08:43:03Z</time>
      </trkpt>
      <trkpt lat="47.66052682" lon="2.14665884">
        <ele>189.15</ele>
        <time>2025-10-16T08:43:11Z</time>
      </trkpt>
      <trkpt lat="47.66042656" lon="2.14666207">
        <ele>188.6</ele>
        <time>2025-10-16T08:43:19Z</time>
      </trkpt>
      <trkpt lat="47.66033437" lon="2.14666356">
        <ele>188.88</ele>
        <time>2025-10-16T08:43:27Z</time>
      </trkpt>
      <trkpt lat="47.66024368" lon="2.14664662">
        <ele>193.43</ele>
        <time>2025-10-16T08:43:35Z</time>
      </trkpt>
      <trkpt lat="47.66015152" lon="2.1466522">
        <ele>195.9</ele>
        <time>2025-10-16T08:43:44Z</time>
      </trkpt>
      <trkpt lat="47.66005195" lon="2.14667756">
        <ele>191.3</ele>
        <time>2025-10-16T08:43:52Z</time>
      </trkpt>
      <trkpt lat="47.65995369" lon="2.14668638">
        <ele>189.98</ele>
        <time>2025-10-16T08:44:00Z</time>
      </trkpt>
      <trkpt lat="47.65986255" lon="2.14667344">
        <ele>191.1</ele>
        <time>2025-10-16T08:44:08Z</time>
      </trkpt>
      <trkpt lat="47.65976353" lon="2.14667864">
        <ele>191.02</ele>
        <time>2025-10-16T08:44:16Z</time>
      </trkpt>
      <trkpt lat="47.65966402" lon="2.14666544">
        <ele>193.39</ele>
        <time>2025-10-16T08:44:24Z</time>
      </trkpt>
      <trkpt lat="47.6595641" lon="2.14667032">
        <ele>194.73</ele>
        <time>2025-10-16T08:44:33Z</time>
      </trkpt>
      <trkpt lat="47.65946553" lon="2.14668919">
        <ele>192.4</ele>
        <time>2025-10-16T08:44:42Z</time>
      </trkpt>
      <trkpt lat="47.65936879" lon="2.14669983">
        <ele>192.86</ele>
        <time>2025-10-16T08:44:50Z</time>
      </trkpt>
      <trkpt lat="47.65927227" lon="2.14671309">
        <ele>194.02</ele>
        <time>2025-10-16T08:44:58Z</time>
      </trkpt>
      <trkpt lat="47.65916885" lon="2.14671816">
        <ele>193.69</ele>
        <time>2025-10-16T08:45:06Z</time>
      </trkpt>
      <trkpt lat="47.65907806" lon="2.14672214">
        <ele>194.11</ele>
        <time>2025-10-16T08:45:14Z</time>
      </trkpt>
      <trkpt lat="47.65897651" lon="2.14672213">
        <ele>194.7</ele>
        <time>2025-10-16T08:45:23Z</time>
      </trkpt>
      <trkpt lat="47.65888282" lon="2.14667046">
        <ele>194.57</ele>
        <time>2025-10-16T08:45:32Z</time>
      </trkpt>
      <trkpt lat="47.65878942" lon="2.14660884">
        <ele>194.75</ele>
        <time>2025-10-16T08:45:41Z</time>
      </trkpt>
      <trkpt lat="47.65870567" lon="2.14655067">
        <ele>195.18</ele>
        <time>2025-10-16T08:45:49Z</time>
      </trkpt>
      <trkpt lat="47.65861695" lon="2.14647872">
        <ele>194.5</ele>
        <time>2025-10-16T08:45:58Z</time>
      </trkpt>
      <trkpt lat="47.65852514" lon="2.14642923">
        <ele>194.47</ele>
        <time>2025-10-16T08:46:06Z</time>
      </trkpt>
      <trkpt lat="47.65844089" lon="2.14637552">
        <ele>193.9</ele>
        <time>2025-10-16T08:46:14Z</time>
      </trkpt>
      <trkpt lat="47.65834302" lon="2.14631032">
        <ele>193.15</ele>
        <time>2025-10-16T08:46:23Z</time>
      </trkpt>
      <trkpt lat="47.65825148" lon="2.14625595">
        <ele>193.44</ele>
        <time>2025-10-16T08:46:31Z</time>
      </trkpt>
      <trkpt lat="47.65815834" lon="2.14619296">
        <ele>193.48</ele>
        <time>2025-10-16T08:46:39Z</time>
      </trkpt>
      <trkpt lat="47.65807032" lon="2.14614723">
        <ele>192.99</ele>
        <time>2025-10-16T08:46:47Z</time>
      </trkpt>
      <trkpt lat="47.65797916" lon="2.14609293">
        <ele>192.62</ele>
        <time>2025-10-16T08:46:55Z</time>
      </trkpt>
      <trkpt lat="47.65789482" lon="2.14603669">
        <ele>193.25</ele>
        <time>2025-10-16T08:47:02Z</time>
      </trkpt>
      <trkpt lat="47.65780593" lon="2.14597485">
        <ele>192.74</ele>
        <time>2025-10-16T08:47:10Z</time>
      </trkpt>
      <trkpt lat="47.65771912" lon="2.145906">
        <ele>192.36</ele>
        <time>2025-10-16T08:47:18Z</time>
      </trkpt>
      <trkpt lat="47.65763288" lon="2.14583739">
        <ele>192.33</ele>
        <time>2025-10-16T08:47:26Z</time>
      </trkpt>
      <trkpt lat="47.65754128" lon="2.14577838">
        <ele>192.88</ele>
        <time>2025-10-16T08:47:34Z</time>
      </trkpt>
      <trkpt lat="47.65745269" lon="2.14572216">
        <ele>193.88</ele>
        <time>2025-10-16T08:47:42Z</time>
      </trkpt>
      <trkpt lat="47.65736197" lon="2.14568868">
        <ele>194.01</ele>
        <time>2025-10-16T08:47:50Z</time>
      </trkpt>
      <trkpt lat="47.65726442" lon="2.14566607">
        <ele>194.18</ele>
        <time>2025-10-16T08:47:58Z</time>
      </trkpt>
      <trkpt lat="47.65717105" lon="2.14564165">
        <ele>195.17</ele>
        <time>2025-10-16T08:48:06Z</time>
      </trkpt>
      <trkpt lat="47.65707256" lon="2.14562083">
        <ele>195.91</ele>
        <time>2025-10-16T08:48:14Z</time>
      </trkpt>
      <trkpt lat="47.65698008" lon="2.14560548">
        <ele>196.58</ele>
        <time>2025-10-16T08:48:22Z</time>
      </trkpt>
      <trkpt lat="47.65688347" lon="2.14557507">
        <ele>198.78</ele>
        <time>2025-10-16T08:48:29Z</time>
      </trkpt>
      <trkpt lat="47.65678799" lon="2.14556896">
        <ele>198.05</ele>
        <time>2025-10-16T08:48:37Z</time>
      </trkpt>
      <trkpt lat="47.65669305" lon="2.14555644">
        <ele>200.37</ele>
        <time>2025-10-16T08:48:45Z</time>
      </trkpt>
      <trkpt lat="47.65659404" lon="2.1455662">
        <ele>197.78</ele>
        <time>2025-10-16T08:48:53Z</time>
      </trkpt>
      <trkpt lat="47.65650358" lon="2.14553687">
        <ele>197.86</ele>
        <time>2025-10-16T08:49:01Z</time>
      </trkpt>
      <trkpt lat="47.6564123" lon="2.14548893">
        <ele>197.6</ele>
        <time>2025-10-16T08:49:09Z</time>
      </trkpt>
      <trkpt lat="47.656322" lon="2.14545208">
        <ele>197.35</ele>
        <time>2025-10-16T08:49:18Z</time>
      </trkpt>
      <trkpt lat="47.65623646" lon="2.14539743">
        <ele>197.49</ele>
        <time>2025-10-16T08:49:26Z</time>
      </trkpt>
      <trkpt lat="47.65615131" lon="2.14534654">
        <ele>197.17</ele>
        <time>2025-10-16T08:49:34Z</time>
      </trkpt>
      <trkpt lat="47.6560637" lon="2.14529258">
        <ele>197.91</ele>
        <time>2025-10-16T08:49:41Z</time>
      </trkpt>
      <trkpt lat="47.65598205" lon="2.14522672">
        <ele>197.27</ele>
        <time>2025-10-16T08:49:48Z</time>
      </trkpt>
      <trkpt lat="47.65588998" lon="2.14516815">
        <ele>197.81</ele>
        <time>2025-10-16T08:49:56Z</time>
      </trkpt>
      <trkpt lat="47.65579862" lon="2.14515597">
        <ele>191.96</ele>
        <time>2025-10-16T08:50:06Z</time>
      </trkpt>
      <trkpt lat="47.6557035" lon="2.14511575">
        <ele>195.23</ele>
        <time>2025-10-16T08:50:16Z</time>
      </trkpt>
      <trkpt lat="47.65561505" lon="2.14508468">
        <ele>194.66</ele>
        <time>2025-10-16T08:50:24Z</time>
      </trkpt>
      <trkpt lat="47.65552201" lon="2.14504607">
        <ele>194.99</ele>
        <time>2025-10-16T08:50:32Z</time>
      </trkpt>
      <trkpt lat="47.65543113" lon="2.14500719">
        <ele>195.91</ele>
        <time>2025-10-16T08:50:40Z</time>
      </trkpt>
      <trkpt lat="47.65533083" lon="2.1450108">
        <ele>196.47</ele>
        <time>2025-10-16T08:50:49Z</time>
      </trkpt>
      <trkpt lat="47.65523978" lon="2.14499127">
        <ele>194.81</ele>
        <time>2025-10-16T08:50:57Z</time>
      </trkpt>
      <trkpt lat="47.65515049" lon="2.14495673">
        <ele>194.43</ele>
        <time>2025-10-16T08:51:05Z</time>
      </trkpt>
      <trkpt lat="47.65505918" lon="2.144912">
        <ele>194.34</ele>
        <time>2025-10-16T08:51:13Z</time>
      </trkpt>
      <trkpt lat="47.6549716" lon="2.14487186">
        <ele>193.38</ele>
        <time>2025-10-16T08:51:21Z</time>
      </trkpt>
      <trkpt lat="47.65488012" lon="2.1448428">
        <ele>193.18</ele>
        <time>2025-10-16T08:51:29Z</time>
      </trkpt>
      <trkpt lat="47.65477805" lon="2.14482423">
        <ele>193.88</ele>
        <time>2025-10-16T08:51:38Z</time>
      </trkpt>
      <trkpt lat="47.65469169" lon="2.14476284">
        <ele>193.46</ele>
        <time>2025-10-16T08:51:46Z</time>
      </trkpt>
      <trkpt lat="47.65459392" lon="2.14472782">
        <ele>194.58</ele>
        <time>2025-10-16T08:51:53Z</time>
      </trkpt>
      <trkpt lat="47.65450121" lon="2.14469965">
        <ele>195.34</ele>
        <time>2025-10-16T08:52:00Z</time>
      </trkpt>
      <trkpt lat="47.65440627" lon="2.14467007">
        <ele>196</ele>
        <time>2025-10-16T08:52:08Z</time>
      </trkpt>
      <trkpt lat="47.65429807" lon="2.14461615">
        <ele>196.94</ele>
        <time>2025-10-16T08:52:17Z</time>
      </trkpt>
      <trkpt lat="47.65420353" lon="2.14458369">
        <ele>196.39</ele>
        <time>2025-10-16T08:52:26Z</time>
      </trkpt>
      <trkpt lat="47.65410736" lon="2.14454547">
        <ele>197.91</ele>
        <time>2025-10-16T08:52:35Z</time>
      </trkpt>
      <trkpt lat="47.65403461" lon="2.14465197">
        <ele>196.25</ele>
        <time>2025-10-16T08:53:35Z</time>
      </trkpt>
      <trkpt lat="47.6540024" lon="2.14480292">
        <ele>197.29</ele>
        <time>2025-10-16T08:53:46Z</time>
      </trkpt>
      <trkpt lat="47.65395263" lon="2.14493739">
        <ele>198.09</ele>
        <time>2025-10-16T08:53:56Z</time>
      </trkpt>
      <trkpt lat="47.65391932" lon="2.14506689">
        <ele>198.84</ele>
        <time>2025-10-16T08:54:06Z</time>
      </trkpt>
      <trkpt lat="47.65386678" lon="2.1451878">
        <ele>197.09</ele>
        <time>2025-10-16T08:54:14Z</time>
      </trkpt>
      <trkpt lat="47.6538162" lon="2.14530067">
        <ele>195.63</ele>
        <time>2025-10-16T08:54:22Z</time>
      </trkpt>
      <trkpt lat="47.65376319" lon="2.14541126">
        <ele>195.04</ele>
        <time>2025-10-16T08:54:30Z</time>
      </trkpt>
      <trkpt lat="47.65371908" lon="2.14554035">
        <ele>195.13</ele>
        <time>2025-10-16T08:54:39Z</time>
      </trkpt>
      <trkpt lat="47.65367363" lon="2.14566037">
        <ele>192.54</ele>
        <time>2025-10-16T08:54:57Z</time>
      </trkpt>
      <trkpt lat="47.65362269" lon="2.14577937">
        <ele>192.44</ele>
        <time>2025-10-16T08:55:09Z</time>
      </trkpt>
      <trkpt lat="47.65358304" lon="2.14590831">
        <ele>195.17</ele>
        <time>2025-10-16T08:55:20Z</time>
      </trkpt>
      <trkpt lat="47.65353068" lon="2.14601939">
        <ele>194.47</ele>
        <time>2025-10-16T08:55:36Z</time>
      </trkpt>
      <trkpt lat="47.65348335" lon="2.14613343">
        <ele>193.65</ele>
        <time>2025-10-16T08:55:44Z</time>
      </trkpt>
      <trkpt lat="47.65343888" lon="2.14625666">
        <ele>194.2</ele>
        <time>2025-10-16T08:55:53Z</time>
      </trkpt>
      <trkpt lat="47.65339712" lon="2.14637707">
        <ele>194.06</ele>
        <time>2025-10-16T08:56:06Z</time>
      </trkpt>
      <trkpt lat="47.65334268" lon="2.14650454">
        <ele>191.41</ele>
        <time>2025-10-16T08:56:14Z</time>
      </trkpt>
      <trkpt lat="47.65328166" lon="2.14662376">
        <ele>190.96</ele>
        <time>2025-10-16T08:56:21Z</time>
      </trkpt>
      <trkpt lat="47.65322029" lon="2.14673883">
        <ele>189.21</ele>
        <time>2025-10-16T08:56:31Z</time>
      </trkpt>
      <trkpt lat="47.65317345" lon="2.14687273">
        <ele>189.78</ele>
        <time>2025-10-16T08:56:39Z</time>
      </trkpt>
      <trkpt lat="47.65312374" lon="2.14700547">
        <ele>190.06</ele>
        <time>2025-10-16T08:56:47Z</time>
      </trkpt>
      <trkpt lat="47.65307605" lon="2.14712676">
        <ele>191.75</ele>
        <time>2025-10-16T08:56:55Z</time>
      </trkpt>
      <trkpt lat="47.6530248" lon="2.14725451">
        <ele>190.57</ele>
        <time>2025-10-16T08:57:04Z</time>
      </trkpt>
      <trkpt lat="47.65297325" lon="2.14738203">
        <ele>190.38</ele>
        <time>2025-10-16T08:57:13Z</time>
      </trkpt>
      <trkpt lat="47.65293141" lon="2.147504">
        <ele>191.47</ele>
        <time>2025-10-16T08:57:21Z</time>
      </trkpt>
      <trkpt lat="47.65288369" lon="2.1476261">
        <ele>192.03</ele>
        <time>2025-10-16T08:57:29Z</time>
      </trkpt>
      <trkpt lat="47.65283396" lon="2.14775502">
        <ele>191.95</ele>
        <time>2025-10-16T08:57:37Z</time>
      </trkpt>
      <trkpt lat="47.65278708" lon="2.14788533">
        <ele>191.95</ele>
        <time>2025-10-16T08:57:45Z</time>
      </trkpt>
      <trkpt lat="47.65274458" lon="2.14800596">
        <ele>192.02</ele>
        <time>2025-10-16T08:57:53Z</time>
      </trkpt>
      <trkpt lat="47.65269488" lon="2.14812042">
        <ele>192.39</ele>
        <time>2025-10-16T08:58:02Z</time>
      </trkpt>
      <trkpt lat="47.65264523" lon="2.14824291">
        <ele>192.31</ele>
        <time>2025-10-16T08:58:11Z</time>
      </trkpt>
      <trkpt lat="47.65259159" lon="2.1483728">
        <ele>192.03</ele>
        <time>2025-10-16T08:58:19Z</time>
      </trkpt>
      <trkpt lat="47.65254406" lon="2.14848924">
        <ele>191.51</ele>
        <time>2025-10-16T08:58:27Z</time>
      </trkpt>
      <trkpt lat="47.65249871" lon="2.1486171">
        <ele>191.89</ele>
        <time>2025-10-16T08:58:36Z</time>
      </trkpt>
      <trkpt lat="47.65245263" lon="2.14874155">
        <ele>192.13</ele>
        <time>2025-10-16T08:58:45Z</time>
      </trkpt>
      <trkpt lat="47.65240368" lon="2.14885675">
        <ele>189.92</ele>
        <time>2025-10-16T08:58:53Z</time>
      </trkpt>
      <trkpt lat="47.65235891" lon="2.14897313">
        <ele>189.81</ele>
        <time>2025-10-16T08:59:01Z</time>
      </trkpt>
      <trkpt lat="47.65232132" lon="2.14910483">
        <ele>191.14</ele>
        <time>2025-10-16T08:59:09Z</time>
      </trkpt>
      <trkpt lat="47.65227335" lon="2.14922919">
        <ele>191.72</ele>
        <time>2025-10-16T08:59:18Z</time>
      </trkpt>
      <trkpt lat="47.65222714" lon="2.14934366">
        <ele>192.08</ele>
        <time>2025-10-16T08:59:26Z</time>
      </trkpt>
      <trkpt lat="47.65218696" lon="2.14946761">
        <ele>192.43</ele>
        <time>2025-10-16T08:59:34Z</time>
      </trkpt>
      <trkpt lat="47.65214122" lon="2.14959283">
        <ele>192.43</ele>
        <time>2025-10-16T08:59:41Z</time>
      </trkpt>
      <trkpt lat="47.65209718" lon="2.14971599">
        <ele>192.82</ele>
        <time>2025-10-16T08:59:48Z</time>
      </trkpt>
      <trkpt lat="47.65204408" lon="2.14984917">
        <ele>193.72</ele>
        <time>2025-10-16T08:59:55Z</time>
      </trkpt>
      <trkpt lat="47.65199962" lon="2.1499852">
        <ele>193.7</ele>
        <time>2025-10-16T09:00:02Z</time>
      </trkpt>
      <trkpt lat="47.65195029" lon="2.15011448">
        <ele>194.12</ele>
        <time>2025-10-16T09:00:09Z</time>
      </trkpt>
      <trkpt lat="47.65190325" lon="2.15023397">
        <ele>193.34</ele>
        <time>2025-10-16T09:00:16Z</time>
      </trkpt>
      <trkpt lat="47.65185691" lon="2.15036257">
        <ele>194.06</ele>
        <time>2025-10-16T09:00:23Z</time>
      </trkpt>
      <trkpt lat="47.65180918" lon="2.1504812">
        <ele>194.18</ele>
        <time>2025-10-16T09:00:30Z</time>
      </trkpt>
      <trkpt lat="47.65176223" lon="2.15059543">
        <ele>194.23</ele>
        <time>2025-10-16T09:00:37Z</time>
      </trkpt>
      <trkpt lat="47.65172265" lon="2.15072053">
        <ele>193.74</ele>
        <time>2025-10-16T09:00:44Z</time>
      </trkpt>
      <trkpt lat="47.65167554" lon="2.15084145">
        <ele>193.74</ele>
        <time>2025-10-16T09:00:51Z</time>
      </trkpt>
      <trkpt lat="47.65162566" lon="2.15096716">
        <ele>193.86</ele>
        <time>2025-10-16T09:00:59Z</time>
      </trkpt>
      <trkpt lat="47.65156874" lon="2.15108237">
        <ele>193.23</ele>
        <time>2025-10-16T09:01:08Z</time>
      </trkpt>
      <trkpt lat="47.65151146" lon="2.15119975">
        <ele>192.35</ele>
        <time>2025-10-16T09:01:15Z</time>
      </trkpt>
      <trkpt lat="47.65145456" lon="2.15132362">
        <ele>193.05</ele>
        <time>2025-10-16T09:01:22Z</time>
      </trkpt>
      <trkpt lat="47.65141361" lon="2.15144886">
        <ele>189.68</ele>
        <time>2025-10-16T09:01:29Z</time>
      </trkpt>
      <trkpt lat="47.65137809" lon="2.15157409">
        <ele>189.82</ele>
        <time>2025-10-16T09:01:36Z</time>
      </trkpt>
      <trkpt lat="47.65132568" lon="2.15170688">
        <ele>189.77</ele>
        <time>2025-10-16T09:01:43Z</time>
      </trkpt>
      <trkpt lat="47.65130527" lon="2.15185077">
        <ele>191.05</ele>
        <time>2025-10-16T09:01:50Z</time>
      </trkpt>
      <trkpt lat="47.65130895" lon="2.15199502">
        <ele>191.46</ele>
        <time>2025-10-16T09:01:58Z</time>
      </trkpt>
      <trkpt lat="47.65126264" lon="2.15212664">
        <ele>192.19</ele>
        <time>2025-10-16T09:02:07Z</time>
      </trkpt>
      <trkpt lat="47.65117553" lon="2.15220379">
        <ele>192.31</ele>
        <time>2025-10-16T09:03:05Z</time>
      </trkpt>
      <trkpt lat="47.65109686" lon="2.15228729">
        <ele>192.55</ele>
        <time>2025-10-16T09:03:12Z</time>
      </trkpt>
      <trkpt lat="47.65101824" lon="2.15237627">
        <ele>193.11</ele>
        <time>2025-10-16T09:03:19Z</time>
      </trkpt>
      <trkpt lat="47.65093879" lon="2.15246131">
        <ele>192.68</ele>
        <time>2025-10-16T09:03:26Z</time>
      </trkpt>
      <trkpt lat="47.65086113" lon="2.15253603">
        <ele>192.95</ele>
        <time>2025-10-16T09:03:33Z</time>
      </trkpt>
      <trkpt lat="47.65077995" lon="2.15259829">
        <ele>193.26</ele>
        <time>2025-10-16T09:03:40Z</time>
      </trkpt>
      <trkpt lat="47.65069208" lon="2.15265756">
        <ele>194.68</ele>
        <time>2025-10-16T09:03:48Z</time>
      </trkpt>
      <trkpt lat="47.65059911" lon="2.15272284">
        <ele>192.46</ele>
        <time>2025-10-16T09:03:57Z</time>
      </trkpt>
      <trkpt lat="47.65051761" lon="2.15279162">
        <ele>193.02</ele>
        <time>2025-10-16T09:04:11Z</time>
      </trkpt>
      <trkpt lat="47.65044159" lon="2.15287444">
        <ele>193.31</ele>
        <time>2025-10-16T09:04:19Z</time>
      </trkpt>
      <trkpt lat="47.65036317" lon="2.15294071">
        <ele>193.18</ele>
        <time>2025-10-16T09:04:26Z</time>
      </trkpt>
      <trkpt lat="47.6502854" lon="2.15303538">
        <ele>193.87</ele>
        <time>2025-10-16T09:04:33Z</time>
      </trkpt>
      <trkpt lat="47.65020193" lon="2.15312584">
        <ele>193.98</ele>
        <time>2025-10-16T09:04:41Z</time>
      </trkpt>
      <trkpt lat="47.65012427" lon="2.15319708">
        <ele>194.27</ele>
        <time>2025-10-16T09:04:48Z</time>
      </trkpt>
      <trkpt lat="47.65004749" lon="2.15327026">
        <ele>193.46</ele>
        <time>2025-10-16T09:04:55Z</time>
      </trkpt>
      <trkpt lat="47.64996057" lon="2.1533485">
        <ele>193</ele>
        <time>2025-10-16T09:05:02Z</time>
      </trkpt>
      <trkpt lat="47.64987403" lon="2.15343234">
        <ele>193.12</ele>
        <time>2025-10-16T09:05:09Z</time>
      </trkpt>
      <trkpt lat="47.64979371" lon="2.15351071">
        <ele>193.71</ele>
        <time>2025-10-16T09:05:16Z</time>
      </trkpt>
      <trkpt lat="47.64970856" lon="2.15358759">
        <ele>194.09</ele>
        <time>2025-10-16T09:05:23Z</time>
      </trkpt>
      <trkpt lat="47.6496134" lon="2.15364831">
        <ele>192.34</ele>
        <time>2025-10-16T09:05:30Z</time>
      </trkpt>
      <trkpt lat="47.64952505" lon="2.15372952">
        <ele>194.13</ele>
        <time>2025-10-16T09:05:37Z</time>
      </trkpt>
      <trkpt lat="47.64944593" lon="2.15381551">
        <ele>194.29</ele>
        <time>2025-10-16T09:05:44Z</time>
      </trkpt>
      <trkpt lat="47.64936578" lon="2.15390158">
        <ele>193.52</ele>
        <time>2025-10-16T09:05:52Z</time>
      </trkpt>
      <trkpt lat="47.64929015" lon="2.15397834">
        <ele>192.66</ele>
        <time>2025-10-16T09:05:59Z</time>
      </trkpt>
      <trkpt lat="47.64920038" lon="2.15402124">
        <ele>191.21</ele>
        <time>2025-10-16T09:06:06Z</time>
      </trkpt>
      <trkpt lat="47.64911784" lon="2.15410707">
        <ele>190.36</ele>
        <time>2025-10-16T09:06:13Z</time>
      </trkpt>
      <trkpt lat="47.64903962" lon="2.15419226">
        <ele>190.9</ele>
        <time>2025-10-16T09:06:20Z</time>
      </trkpt>
      <trkpt lat="47.64895625" lon="2.154283">
        <ele>190.58</ele>
        <time>2025-10-16T09:06:27Z</time>
      </trkpt>
      <trkpt lat="47.64886442" lon="2.15431509">
        <ele>191.3</ele>
        <time>2025-10-16T09:06:45Z</time>
      </trkpt>
      <trkpt lat="47.64876897" lon="2.15436978">
        <ele>191.25</ele>
        <time>2025-10-16T09:07:15Z</time>
      </trkpt>
      <trkpt lat="47.64868192" lon="2.15441974">
        <ele>191.3</ele>
        <time>2025-10-16T09:07:28Z</time>
      </trkpt>
      <trkpt lat="47.64859908" lon="2.15447269">
        <ele>191.18</ele>
        <time>2025-10-16T09:07:32Z</time>
      </trkpt>
      <trkpt lat="47.64851157" lon="2.15454619">
        <ele>192.09</ele>
        <time>2025-10-16T09:07:36Z</time>
      </trkpt>
      <trkpt lat="47.64843404" lon="2.15463694">
        <ele>191.46</ele>
        <time>2025-10-16T09:07:42Z</time>
      </trkpt>
      <trkpt lat="47.64835994" lon="2.15472054">
        <ele>192.72</ele>
        <time>2025-10-16T09:07:49Z</time>
      </trkpt>
      <trkpt lat="47.64827851" lon="2.15479054">
        <ele>191.48</ele>
        <time>2025-10-16T09:07:57Z</time>
      </trkpt>
      <trkpt lat="47.64820896" lon="2.1548868">
        <ele>191.02</ele>
        <time>2025-10-16T09:08:04Z</time>
      </trkpt>
      <trkpt lat="47.64812015" lon="2.15495676">
        <ele>190.84</ele>
        <time>2025-10-16T09:08:12Z</time>
      </trkpt>
      <trkpt lat="47.6480254" lon="2.15499842">
        <ele>190.81</ele>
        <time>2025-10-16T09:08:20Z</time>
      </trkpt>
      <trkpt lat="47.64792911" lon="2.15504865">
        <ele>188.45</ele>
        <time>2025-10-16T09:08:28Z</time>
      </trkpt>
      <trkpt lat="47.64784501" lon="2.15510207">
        <ele>190.91</ele>
        <time>2025-10-16T09:08:35Z</time>
      </trkpt>
      <trkpt lat="47.64775538" lon="2.15514157">
        <ele>190.54</ele>
        <time>2025-10-16T09:08:42Z</time>
      </trkpt>
      <trkpt lat="47.64765489" lon="2.15517666">
        <ele>194.72</ele>
        <time>2025-10-16T09:08:50Z</time>
      </trkpt>
      <trkpt lat="47.64755374" lon="2.15518289">
        <ele>191.84</ele>
        <time>2025-10-16T09:08:58Z</time>
      </trkpt>
      <trkpt lat="47.64745724" lon="2.15523808">
        <ele>188.67</ele>
        <time>2025-10-16T09:09:06Z</time>
      </trkpt>
      <trkpt lat="47.647365" lon="2.15528323">
        <ele>189.69</ele>
        <time>2025-10-16T09:09:12Z</time>
      </trkpt>
      <trkpt lat="47.64726975" lon="2.15531058">
        <ele>188.95</ele>
        <time>2025-10-16T09:09:19Z</time>
      </trkpt>
      <trkpt lat="47.64717413" lon="2.15532161">
        <ele>189.86</ele>
        <time>2025-10-16T09:09:26Z</time>
      </trkpt>
      <trkpt lat="47.64707591" lon="2.1553331">
        <ele>188.24</ele>
        <time>2025-10-16T09:09:34Z</time>
      </trkpt>
      <trkpt lat="47.64697922" lon="2.15532825">
        <ele>188.55</ele>
        <time>2025-10-16T09:09:41Z</time>
      </trkpt>
      <trkpt lat="47.64688717" lon="2.15534853">
        <ele>186.78</ele>
        <time>2025-10-16T09:09:48Z</time>
      </trkpt>
      <trkpt lat="47.64679812" lon="2.15537004">
        <ele>188.24</ele>
        <time>2025-10-16T09:09:55Z</time>
      </trkpt>
      <trkpt lat="47.64670673" lon="2.15539819">
        <ele>190.79</ele>
        <time>2025-10-16T09:10:02Z</time>
      </trkpt>
      <trkpt lat="47.64660894" lon="2.15544569">
        <ele>191.06</ele>
        <time>2025-10-16T09:10:10Z</time>
      </trkpt>
      <trkpt lat="47.64651746" lon="2.155493">
        <ele>191.79</ele>
        <time>2025-10-16T09:10:17Z</time>
      </trkpt>
      <trkpt lat="47.64641897" lon="2.15552541">
        <ele>190.97</ele>
        <time>2025-10-16T09:10:25Z</time>
      </trkpt>
      <trkpt lat="47.64632526" lon="2.15557602">
        <ele>191.44</ele>
        <time>2025-10-16T09:10:33Z</time>
      </trkpt>
      <trkpt lat="47.64624375" lon="2.15564293">
        <ele>190.52</ele>
        <time>2025-10-16T09:10:40Z</time>
      </trkpt>
      <trkpt lat="47.64615346" lon="2.15569919">
        <ele>190.35</ele>
        <time>2025-10-16T09:10:47Z</time>
      </trkpt>
      <trkpt lat="47.64608011" lon="2.15580168">
        <ele>191.53</ele>
        <time>2025-10-16T09:10:54Z</time>
      </trkpt>
      <trkpt lat="47.64601408" lon="2.15590201">
        <ele>194.77</ele>
        <time>2025-10-16T09:11:01Z</time>
      </trkpt>
      <trkpt lat="47.64594327" lon="2.15600124">
        <ele>190.12</ele>
        <time>2025-10-16T09:11:07Z</time>
      </trkpt>
      <trkpt lat="47.64585931" lon="2.15609139">
        <ele>185.95</ele>
        <time>2025-10-16T09:11:14Z</time>
      </trkpt>
      <trkpt lat="47.6457738" lon="2.15617185">
        <ele>188.12</ele>
        <time>2025-10-16T09:11:21Z</time>
      </trkpt>
      <trkpt lat="47.64568131" lon="2.15623087">
        <ele>190.94</ele>
        <time>2025-10-16T09:11:28Z</time>
      </trkpt>
      <trkpt lat="47.64558858" lon="2.15629598">
        <ele>189.32</ele>
        <time>2025-10-16T09:11:36Z</time>
      </trkpt>
      <trkpt lat="47.6455004" lon="2.15636058">
        <ele>191.07</ele>
        <time>2025-10-16T09:11:44Z</time>
      </trkpt>
      <trkpt lat="47.64541237" lon="2.15641534">
        <ele>193.2</ele>
        <time>2025-10-16T09:11:52Z</time>
      </trkpt>
      <trkpt lat="47.64533203" lon="2.1564846">
        <ele>194.74</ele>
        <time>2025-10-16T09:11:59Z</time>
      </trkpt>
      <trkpt lat="47.64524037" lon="2.15652307">
        <ele>191.67</ele>
        <time>2025-10-16T09:12:16Z</time>
      </trkpt>
      <trkpt lat="47.64516803" lon="2.1566035">
        <ele>188.22</ele>
        <time>2025-10-16T09:12:23Z</time>
      </trkpt>
      <trkpt lat="47.64509469" lon="2.15669034">
        <ele>190.34</ele>
        <time>2025-10-16T09:12:30Z</time>
      </trkpt>
      <trkpt lat="47.64502594" lon="2.15677995">
        <ele>188.95</ele>
        <time>2025-10-16T09:12:38Z</time>
      </trkpt>
      <trkpt lat="47.64496571" lon="2.15689954">
        <ele>189.92</ele>
        <time>2025-10-16T09:12:46Z</time>
      </trkpt>
      <trkpt lat="47.64490765" lon="2.15702479">
        <ele>188.69</ele>
        <time>2025-10-16T09:12:54Z</time>
      </trkpt>
      <trkpt lat="47.644868" lon="2.15715728">
        <ele>189.03</ele>
        <time>2025-10-16T09:13:03Z</time>
      </trkpt>
      <trkpt lat="47.64484027" lon="2.157289">
        <ele>191.18</ele>
        <time>2025-10-16T09:13:11Z</time>
      </trkpt>
      <trkpt lat="47.64479836" lon="2.15741188">
        <ele>188.47</ele>
        <time>2025-10-16T09:13:19Z</time>
      </trkpt>
      <trkpt lat="47.64480454" lon="2.15755407">
        <ele>188.38</ele>
        <time>2025-10-16T09:13:26Z</time>
      </trkpt>
      <trkpt lat="47.64478234" lon="2.15768444">
        <ele>188.98</ele>
        <time>2025-10-16T09:13:33Z</time>
      </trkpt>
      <trkpt lat="47.64476392" lon="2.15781634">
        <ele>188.44</ele>
        <time>2025-10-16T09:13:40Z</time>
      </trkpt>
      <trkpt lat="47.64474402" lon="2.15796046">
        <ele>188.34</ele>
        <time>2025-10-16T09:13:47Z</time>
      </trkpt>
      <trkpt lat="47.64472492" lon="2.15809749">
        <ele>185.34</ele>
        <time>2025-10-16T09:13:55Z</time>
      </trkpt>
      <trkpt lat="47.64468767" lon="2.15823549">
        <ele>186.15</ele>
        <time>2025-10-16T09:14:03Z</time>
      </trkpt>
      <trkpt lat="47.64466216" lon="2.15836873">
        <ele>187.45</ele>
        <time>2025-10-16T09:14:10Z</time>
      </trkpt>
      <trkpt lat="47.64464167" lon="2.15849854">
        <ele>192.6</ele>
        <time>2025-10-16T09:14:17Z</time>
      </trkpt>
      <trkpt lat="47.64458989" lon="2.15861554">
        <ele>189.5</ele>
        <time>2025-10-16T09:14:25Z</time>
      </trkpt>
      <trkpt lat="47.64452874" lon="2.15872744">
        <ele>190.58</ele>
        <time>2025-10-16T09:14:33Z</time>
      </trkpt>
      <trkpt lat="47.64448232" lon="2.15885523">
        <ele>189.25</ele>
        <time>2025-10-16T09:14:40Z</time>
      </trkpt>
      <trkpt lat="47.64442252" lon="2.15897189">
        <ele>188.84</ele>
        <time>2025-10-16T09:14:47Z</time>
      </trkpt>
      <trkpt lat="47.64437568" lon="2.15909236">
        <ele>185.13</ele>
        <time>2025-10-16T09:14:54Z</time>
      </trkpt>
      <trkpt lat="47.64430159" lon="2.15918488">
        <ele>186.42</ele>
        <time>2025-10-16T09:15:01Z</time>
      </trkpt>
      <trkpt lat="47.64422007" lon="2.15926337">
        <ele>186.11</ele>
        <time>2025-10-16T09:15:08Z</time>
      </trkpt>
      <trkpt lat="47.64412778" lon="2.15931559">
        <ele>191.44</ele>
        <time>2025-10-16T09:15:16Z</time>
      </trkpt>
      <trkpt lat="47.6440323" lon="2.15936973">
        <ele>186.89</ele>
        <time>2025-10-16T09:15:23Z</time>
      </trkpt>
      <trkpt lat="47.64393883" lon="2.15941743">
        <ele>189.9</ele>
        <time>2025-10-16T09:15:31Z</time>
      </trkpt>
      <trkpt lat="47.64385154" lon="2.15947241">
        <ele>191.36</ele>
        <time>2025-10-16T09:15:39Z</time>
      </trkpt>
      <trkpt lat="47.64376757" lon="2.1595352">
        <ele>189.32</ele>
        <time>2025-10-16T09:15:47Z</time>
      </trkpt>
      <trkpt lat="47.64369191" lon="2.15961841">
        <ele>188.17</ele>
        <time>2025-10-16T09:15:55Z</time>
      </trkpt>
      <trkpt lat="47.64362034" lon="2.15971665">
        <ele>187.95</ele>
        <time>2025-10-16T09:16:03Z</time>
      </trkpt>
      <trkpt lat="47.64353718" lon="2.15980504">
        <ele>187.48</ele>
        <time>2025-10-16T09:16:11Z</time>
      </trkpt>
      <trkpt lat="47.64345543" lon="2.15989113">
        <ele>185.36</ele>
        <time>2025-10-16T09:16:19Z</time>
      </trkpt>
      <trkpt lat="47.64336606" lon="2.15999585">
        <ele>185.44</ele>
        <time>2025-10-16T09:16:28Z</time>
      </trkpt>
      <trkpt lat="47.64329383" lon="2.16007861">
        <ele>185.39</ele>
        <time>2025-10-16T09:16:35Z</time>
      </trkpt>
      <trkpt lat="47.6432196" lon="2.16016679">
        <ele>184.29</ele>
        <time>2025-10-16T09:16:43Z</time>
      </trkpt>
      <trkpt lat="47.64314153" lon="2.16025817">
        <ele>183.63</ele>
        <time>2025-10-16T09:16:52Z</time>
      </trkpt>
      <trkpt lat="47.64306893" lon="2.16035954">
        <ele>183.67</ele>
        <time>2025-10-16T09:17:01Z</time>
      </trkpt>
      <trkpt lat="47.64299323" lon="2.16045839">
        <ele>184.46</ele>
        <time>2025-10-16T09:17:09Z</time>
      </trkpt>
      <trkpt lat="47.64298776" lon="2.16059243">
        <ele>182.72</ele>
        <time>2025-10-16T09:17:17Z</time>
      </trkpt>
      <trkpt lat="47.64304917" lon="2.16069041">
        <ele>185.28</ele>
        <time>2025-10-16T09:17:26Z</time>
      </trkpt>
      <trkpt lat="47.64309693" lon="2.16081565">
        <ele>186.69</ele>
        <time>2025-10-16T09:17:35Z</time>
      </trkpt>
      <trkpt lat="47.64315487" lon="2.16091774">
        <ele>186.28</ele>
        <time>2025-10-16T09:17:43Z</time>
      </trkpt>
      <trkpt lat="47.64321458" lon="2.16103662">
        <ele>187.22</ele>
        <time>2025-10-16T09:17:52Z</time>
      </trkpt>
      <trkpt lat="47.64326081" lon="2.16115362">
        <ele>186.74</ele>
        <time>2025-10-16T09:18:00Z</time>
      </trkpt>
      <trkpt lat="47.64331086" lon="2.16126775">
        <ele>187.59</ele>
        <time>2025-10-16T09:18:08Z</time>
      </trkpt>
      <trkpt lat="47.64336115" lon="2.16139604">
        <ele>187.72</ele>
        <time>2025-10-16T09:18:16Z</time>
      </trkpt>
      <trkpt lat="47.64338383" lon="2.16154148">
        <ele>185.18</ele>
        <time>2025-10-16T09:18:25Z</time>
      </trkpt>
      <trkpt lat="47.64341707" lon="2.16167949">
        <ele>186.15</ele>
        <time>2025-10-16T09:18:34Z</time>
      </trkpt>
      <trkpt lat="47.64345807" lon="2.16180287">
        <ele>189.29</ele>
        <time>2025-10-16T09:18:42Z</time>
      </trkpt>
      <trkpt lat="47.64349609" lon="2.16192997">
        <ele>190.35</ele>
        <time>2025-10-16T09:18:50Z</time>
      </trkpt>
      <trkpt lat="47.6435179" lon="2.16206754">
        <ele>190.28</ele>
        <time>2025-10-16T09:18:59Z</time>
      </trkpt>
    </trkseg>
  </trk>
</gpx>